Water and Atmospheric Resources Monitoring Program - , Illinois State Water Survey

Water and Atmospheric Resources Monitoring Program (WARM)

Weather Soil Groundwater Sediment Streamflow Reservoirs

#370 Little Wabash (USGS #3381500)


Instantaneous Suspended Sediment Measurements

Date Time    Gage Ht. Temp Cs Qw Qs Final F
i
n
a
l
     (feet) (C) (mg/l) (cfs) (t/d)  
10/15/1980 09:45    1.58 15 59.00 26.4 4.2 True x
10/28/1980 15:30    1.85 10 44.00 52.5 6.2 True x
11/11/1980 15:00    1.66 10 39.00 33.4 3.5 True x
11/24/1980 13:40    1.76 21.00 43 2.4 True x
12/12/1980 10:00    2.65 20.00 172.1 9.3 True x
1/27/1981 15:10    1.80 15.00 47 1.9 True x
3/3/1981 10:20    6.71 64.00 1304 225.4 True x
3/19/1981 15:00    2.86 54.00 212.8 31.0 True x
3/24/1981 11:05    2.58 10 40.00 158.5 17.1 True x
3/30/1981 13:30    2.62 15 55.00 166.3 24.7 True x
4/1/1981 09:00    2.47 16 45.00 138.6 16.8 True x
4/1/1981 09:05    2.44 15 42.00 134.2 15.2 True x
4/2/1981 09:30    2.35 18 41.00 121.1 13.4 True x
4/3/1981 09:30    2.42 18 40.00 131.3 14.2 True x
4/5/1981 13:00    2.25 13 37.00 106.5 10.6 True x
4/6/1981 09:30    2.16 12 68.00 93.4 17.1 True x
4/7/1981 09:00    2.21 14 41.00 100.7 11.1 True x
4/8/1981 10:00    2.18 15 45.00 96.3 11.7 True x
4/9/1981 09:30    2.20 14 53.00 99.2 14.2 True x
4/10/1981 09:00    2.20 17 63.00 99.2 16.9 True x
4/11/1981 09:30    2.25 25 31.00 106.5 8.9 True x
4/12/1981 08:30    2.45 19 52.00 135.7 19.1 True x
4/13/1981 09:30    2.44 20 112.00 134.2 40.6 True x
4/14/1981 09:00    2.30 18 52.00 113.8 16.0 True x
4/15/1981 09:30    2.28 16 43.00 110.9 12.9 True x
4/16/1981 09:30    2.27 16 36.00 109.4 10.6 True x
4/17/1981 09:30    2.49 19 41.00 141.5 15.7 True x
4/18/1981 09:00    2.75 20 39.00 191.5 20.2 True x
4/19/1981 09:00    2.95 19 39.00 230.3 24.3 True x
4/20/1981 09:00    3.70 17 88.00 415 98.6 True x
4/21/1981 09:00    7.10 15 433.00 1430 1,672.0 True x
4/22/1981 09:30    6.95 17 160.00 1384 597.7 True x
4/23/1981 09:30    5.75 17 106.00 995 284.8 True x
4/24/1981 09:00    8.70 16 119.00 1910 613.7 True x
4/25/1981 08:30    7.90 16 133.00 1670 599.7 True x
4/26/1981 08:30    6.50 17 287.00 1235 957.0 True x
4/27/1981 09:30    7.90 18 119.00 1670 536.6 True x
4/28/1981 09:00    7.93 20 119.00 1679 539.5 True x
4/29/1981 10:00    5.75 18 137.00 995 368.1 True x
4/30/1981 10:00    4.37 19 215.00 593.6 344.6 True x
5/1/1981 09:30    3.65 18 121.00 402.5 131.5 True x
5/2/1981 09:30    3.18 16 121.00 285 93.1 True x
5/3/1981 08:30    3.10 17 106.00 265 75.8 True x
5/4/1981 08:30    3.05 18 93.00 252.5 63.4 True x
5/5/1981 09:30    3.06 19 77.00 255 53.0 True x
5/6/1981 09:00    4.75 16 78.00 700 147.4 True x
5/7/1981 08:30    3.92 16 73.00 470 92.6 True x
5/8/1981 08:30    2.70 17 65.00 181.8 31.9 True x
5/12/1981 09:00    12.70 16 346.00 3380 3,158.0 True x
5/13/1981 09:00    10.34 15 233.00 2469 1,553.0 True x
5/14/1981 10:00    12.75 15 173.00 3400 1,588.0 True x
5/15/1981 09:00    15.60 15 220.00 4620 2,744.0 True x
5/16/1981 09:00    15.25 15 260.00 4463 3,133.0 True x
5/17/1981 08:00    13.80 16 270.00 3820 2,785.0 True x
5/18/1981 10:00    15.45 15 838.00 4553 10,300.0 True x
5/19/1981 10:00    21.60 14 1,464.00 7860 31,050.0 True x
5/20/1981 09:00    23.05 14 692.00 8783 16,410.0 True x
5/21/1981 08:30    23.25 14 419.00 8913 10,080.0 True x
5/22/1981 08:00    23.20 15 269.00 880 6,450.0 True x
5/23/1981 09:30    23.90 16 215.00 9335 5,419.0 True x
5/24/1981 08:00    22.45 17 180.00 8393 4,079.0 True x
5/25/1981 09:30    23.80 16 609.00 9270 15,240.0 True x
5/26/1981 09:30    23.50 18 356.00 9075 8,723.0 True x
5/27/1981 09:00    24.80 18 258.00 10000 6,966.0 True x
5/28/1981 09:00    25.05 19 224.00 10190 6,163.0 True x
5/29/1981 09:00    25.90 20 127.00 10830 3,714.0 True x
5/30/1981 09:30    24.47 20 98.00 9753 2,581.0 True x
5/31/1981 08:00    24.20 19 80.00 9550 2,063.0 True x
6/1/1981 09:00    23.20 22 68.00 8880 1,630.0 True x
6/2/1981 09:00    22.45 20 65.00 8393 1,473.0 True x
6/3/1981 09:00    21.75 20 135.00 7950 2,898.0 True x
6/4/1981 09:00    21.12 24 126.00 7572 2,576.0 True x
6/5/1981 08:30    20.50 25 163.00 7200 3,169.0 True x
6/6/1981 09:30    19.40 25 155.00 6560 2,737.0 True x
6/7/1981 10:00    18.30 25 190.00 5880 3,016.0 True x
6/8/1981 08:00    18.99 24 259.00 6294 4,401.0 True x
6/9/1981 07:45    15.71 25 143.00 4669 1,803.0 True x
6/10/1981 09:00    11.70 25 89.00 2980 716.1 True x
6/11/1981 08:05    9.16 24 66.00 2056 366.4 True x
6/12/1981 09:30    9.20 25 59.00 2070 329.8 True x
6/13/1981 08:00    10.96 25 50.00 2686 362.6 True x
6/14/1981 09:40    10.92 26 54.00 2672 389.6 True x
6/15/1981 07:00    11.47 26 75.00 2888 584.8 True x
6/17/1981 07:50    10.15 25 466.00 2403 3,023.0 True x
6/17/1981 19:00    9.42 24 387.00 2147 2,243.0 True x
6/18/1981 07:30    8.75 24 285.00 1925 1,481.0 True x
6/18/1981 18:30    8.06 26 186.00 1718 862.8 True x
6/19/1981 07:10    7.50 24 161.00 1550 673.8 True x
6/19/1981 19:00    7.01 25 146.00 1403 553.1 True x
6/20/1981 07:15    6.43 24 132.00 1212 431.9 True x
6/20/1981 18:00    6.03 25 124.00 1080 361.6 True x
6/21/1981 07:40    5.21 25 125.00 833 281.1 True x
6/21/1981 18:00    4.83 25 131.00 722.4 255.5 True x
6/22/1981 07:50    4.05 25 123.00 504 167.4 True x
6/22/1981 18:30    4.22 26 137.00 551.6 204.0 True x
6/23/1981 07:30    4.36  138.00 590.8 220.0 True x
6/23/1981 19:50    3.85  102.00 452.5 124.6 True x
6/24/1981 11:00    3.47 24 102.00 357.5 98.5 True x
6/24/1981 19:00    3.30  112.00 315 95.3 True x
6/25/1981 07:30    3.08  92.00 260 64.6 True x
6/25/1981 18:30    3.05  101.00 252.5 68.9 True x
6/26/1981 08:00    2.90  137.00 220.6 81.6 True x
6/27/1981 08:30    2.75  109.00 191.5 56.4 True x
6/27/1981 19:00    2.73  85.00 187.6 43.1 True x
6/28/1981 07:30    2.65  68.00 172.1 31.6 True x
6/28/1981 18:30    2.50  82.00 143 31.7 True x
6/29/1981 08:30    2.50  82.00 143 31.7 True x
7/8/1981 19:30    4.94  206.00 753.2 418.9 True x
7/15/1981 01:04    2.15 29 43.00 91.9 10.7 True x
7/21/1981 10:10    4.45 27 135.00 616 224.5 True x
8/9/1981 14:55    8.67 25 387.00 1901 1,986.0 True x
8/14/1981 11:45    3.41 24 145.00 342.5 134.1 True x
8/19/1981 11:00    4.25 23 160.00 560 241.9 True x
8/31/1981 14:45    11.55 24 245.00 2920 1,932.0 True x
9/8/1981 10:50    12.32 21 157.00 3228 1,368.0 True x
9/18/1981 10:50    2.70 18 72.00 181.8 35.3 True x
9/24/1981 09:50    2.91 17 68.00 222.5 40.9 True x
10/13/1981 10:00    2.20 16 37.00 95 9.5 True x
10/20/1981 10:40    3.15 13 49.00 271 35.9 True x
10/27/1981 10:10    2.74 10 44.00 185.7 22.1 True x
11/5/1981 10:00    2.71 13 46.00 179.8 22.3 True x
11/13/1981 10:15    4.07 51.00 507.6 69.9 True x
11/18/1981 12:00    2.86 44.00 209.7 23.8 True x
12/1/1981 10:15    4.02 82.00 495 109.6 True x
12/8/1981 09:55    3.93 86.00 469.1 108.9 True x
12/15/1981 10:20    2.69 39.00 176.1 18.5 True x
1/6/1982 10:15    17.29 344.00 5363 4,983.0 True x
2/17/1982 10:25    23.93 170.00 9353 4,294.0 True x
2/27/1982 11:00    29.51 81.00 13940 3,049.0 True x
3/4/1982 10:20    29.67 52.00 14090 1,978.0 True x
3/11/1982 09:45    22.32 63.00 8302 1,412.0 True x
3/18/1982 10:15    20.43 11 257.00 7114 4,937.0 True x
3/26/1982 09:50    22.69 10 171.00 8539 3,943.0 True x
4/1/1982 10:15    20.54 12 80.00 7176 1,531.0 True x
4/8/1982 10:10    11.10 227.00 2737 1,678.0 True x
4/15/1982 10:10    7.92 12 78.00 1668 351.3 True x
4/22/1982 10:10    10.52 14 198.00 2525 1,350.0 True x
4/30/1982 09:50    4.32 15 78.00 572.7 120.6 True x
5/6/1982 10:00    3.09 19 47.00 258.3 32.8 True x
5/13/1982 10:00    4.19 21 121.00 538.3 174.4 True x
5/20/1982 09:45    3.73 23 161.00 412.1 179.1 True x
5/27/1982 10:00    3.03 22 134.00 246.1 89.0 True x
6/3/1982 10:00    16.85 20 563.00 5159 7,845.0 True x
6/10/1982 10:05    18.29 21 626.00 5861 9,911.0 True x
6/24/1982 10:10    3.54 22 104.00 362 101.7 True x
7/1/1982 10:15    3.62 25 94.00 382.6 99.2 True x
7/8/1982 10:05    10.88 25 399.00 2656 2,862.0 True x
7/15/1982 09:55    11.16 24 519.00 2760 3,869.0 True x
7/22/1982 10:10    4.90 26 242.00 739.1 483.0 True x
7/30/1982 10:25    3.41 26 159.00 329.8 141.6 True x
8/6/1982 10:00    2.14 27 51.00 87.1 12.0 True x
8/20/1982 09:55    1.99 24 48.00 68.8 8.9 True x
8/27/1982 10:00    3.23 23 93.00 288.4 72.4 True x
9/24/1982 10:15    3.80 17 116.00 431.4 135.1 True x
10/7/1982 10:25    2.94 19 43.00 248 28.8 True x
10/20/1982 10:40    3.05 14 77.00 270.4 56.2 True x
10/28/1982 10:15    3.12 10 49.00 285.5 37.8 True x
11/4/1982 10:00    2.56 10 31.00 174.9 14.6 True x
11/18/1982 09:45    2.64  26.00 189.6 13.3 True x
11/23/1982 10:10    2.84 34.00 228 20.9 True x
12/1/1982 10:20    11.55 209.00 3020 1,704.0 True x
12/9/1982 10:15    29.92 144.00 15840 6,160.0 True x
1/21/1983 10:30    3.76  23.00 440 27.3 True x
2/4/1983 10:05    19.56 373.00 6861 6,912.0 True x
3/17/1983 10:00    4.08 52.00 520.3 73.0 True x
4/13/1983 10:45    24.88 10 63.00 10610 1,806.0 True x
4/29/1983 10:00    15.20 15 469.00 4608 5,837.0 True x
6/6/1983 10:00    20.15 20 486.00 7239 9,502.0 True x
6/22/1983 11:00    5.12 24 138.00 788.9 294.0 True x
7/24/1983 10:30    2.47 27 54.00 159 23.2 True x
8/24/1983 10:00    2.99 27 33.00 258 23.0 True x
9/27/1983 10:10    1.77 18 26.00 55.8 3.9 True x
10/20/1983 10:30    2.57 14 86.00 176 41.0 True x
12/6/1983 10:30    27.74 48.00 13220 1,713.0 True x
1/26/1984 10:47    10.14 167.00 2457 1,108.0 True x
2/3/1984 10:31    11.46 85.00 2981 684.0 True x
2/9/1984 11:00    11.17 89.00 2863 688.0 True x
3/8/1984 11:33    22.98 115.00 9108 2,828.0 True x
3/15/1984 10:00    15.94 64.00 4968 858.0 True x
3/20/1984 12:34    24.65 404.00 10380 11,322.0 True x
3/28/1984 10:20    27.92 116.00 1342 420.0 True x
4/4/1984 11:38    29.80 10 133.00 15590 5,598.0 True x
4/23/1984 11:40    24.96 464.00 10630 13,317.0 True x
5/15/1984 11:00    20.20 19 67.00 7242 1,310.0 True x
5/22/1984 11:12    13.68 21 181.00 3867 1,890.0 True x
5/31/1984 10:30    7.44 19 122.00 1503 495.0 True x
6/5/1984 10:30    4.22 23 140.00 555 210.0 True x
6/19/1984 09:00    3.03 27 91.00 266 65.0 True x
8/14/1984 11:48    2.27 26 16.00 126 5.0 True x
9/13/1984 10:15    3.12 24 33.00 285 25.0 True x
9/27/1984 10:50    7.36 19 198.00 1477 790.0 True x
10/15/1984 11:10    3.37 20 50.00 343 46.0 True x
10/23/1984 10:15    15.18 13 477.00 4586 5,906.0 True x
10/31/1984 10:21    14.02  140.00 4023 1,521.0 True x
11/28/1984 10:21    18.63 447.00 6309 7,614.0 True x
12/12/1984 10:15    10.77 29.00 2703 212.0 True x
1/29/1985 10:15    3.32 12.00 331 11.0 True x
3/27/1985 09:51    6.82  33.00 1301 116.0 True x
5/24/1985 10:27    4.78  124.00 694 232.0 True x
6/13/1985 10:15    9.02  192.00 2058 1,067.0 True x
9/20/1985 10:30    2.04  48.00 91 12.0 True x
9/24/1993 13:57    15.15 16 530.00 4976 7,130.6 True x
9/24/1993 14:03    15.15 16 578.00 4976 7,765.8 True x
9/30/1993 16:00    21.73 19 92.00 8337 2,074.1 True x
10/6/1993 16:00    22.62 27 59.00 8884 1,431.8 True x
10/13/1993 14:30    14.07 16 61.00 4510 746.8 True x
10/21/1993 16:00    10.48 11 142.00 2980 1,145.8 True x
10/28/1993 14:00    7.78 11 79.00 1874 402.2 True x
11/4/1993 14:30    3.63 12 29.00 442.8 34.8 True x
11/9/1993 14:30    4.27 337.00 629.9 573.5 True x
11/12/1993 10:46    3.22 16.00 334.9 15.0 True x
11/12/1993 11:14    3.22 15.00 334.9 13.6 True x
11/15/1993 14:00    27.00 332.00 12430 11,156.3 True x
11/24/1993 14:00    30.64 192.00 16610 8,640.7 True x
11/30/1993 14:30    31.38 38.00 18260 1,899.1 True x
12/7/1993 14:30    29.76 54.00 15540 2,269.5 True x
12/16/1993 14:30    20.43 69.00 7573 1,425.0 True x
12/22/1993 10:34    12.01 61.00 3624 603.6 True x
12/22/1993 11:11    11.86 67.00 3560 644.8 True x
12/23/1993 14:30    5.91  26.00 1182 84.7 True x
12/28/1993 14:00    5.95  21.00 1197 70.5 True x
1/6/1994 14:00    4.39 15.00 666.7 27.3 True x
1/13/1994 12:00    6.57  18.00 1419 71.3 True x
1/20/1994 13:00    5.60 31.00 1070 91.5 True x
1/27/1994 14:30    17.89 398.00 6227 6,699.8 True x
2/3/1994 14:00    27.73 56.00 13210 2,014.5 True x
2/9/1994 14:30    21.81 37.00 8385 855.5 True x
2/17/1994 10:24    10.27 18.00 2892 143.0 True x
2/17/1994 11:08    10.29 18.00 2900 144.8 True x
2/17/1994 14:00    10.43 13 21.00 2959 170.8 True x
2/25/1994 14:00    15.75 11 96.00 5239 1,366.6 True x
3/3/1994 14:00    9.35 24.00 2505 167.1 True x
3/10/1994 14:30    13.00 15 24.00 4050 263.9 True x
3/17/1994 14:30    9.28 171.00 2476 1,147.8 True x
3/24/1994 14:00    10.34 13 32.00 2921 256.4 True x
3/31/1994 14:00    12.06 31.00 3645 314.8 True x
4/7/1994 10:16    14.20 276.00 4565 3,410.2 True x
4/7/1994 10:52    14.18 252.00 4557 3,110.2 True x
4/11/1994 14:30    21.21 14 453.00 8025 9,832.5 True x
4/15/1994 10:00    27.47 13 178.00 12930 6,245.6 True x
4/22/1994 14:00    28.26 18 93.00 13800 3,485.7 True x
4/29/1994 14:30    25.18 13 98.00 10800 2,873.4 True x
5/6/1994 14:30    19.71 22 190.00 7172 3,679.6 True x
5/12/1994 16:00    9.16 21 109.00 2426 714.6 True x
5/19/1994 10:00    4.05 25 69.00 564.5 106.2 True x
5/23/1994 11:00    4.05 24 81.00 564.5 123.7 True x
5/23/1994 11:41    4.05 24 63.00 564.5 96.3 True x
6/3/1994 15:00    5.79 37 83.00 1138 256.5 True x
6/9/1994 16:00    3.25 30 86.00 342.4 80.0 True x
7/7/1994 10:26    5.69  107.00 1102 320.2 True x
7/7/1994 10:59    5.70  103.00 1106 308.8 True x
7/7/1994 16:30    5.75 31 112.00 1124 341.7 True x
7/15/1994 16:00    4.67 24 108.00 755.4 221.2 True x
7/21/1994 19:00    4.53 27 73.00 710.5 141.6 True x
7/29/1994 18:00    3.95 25 53.00 535 76.9 True x
8/4/1994 17:00    3.05 18 50.00 293.7 39.9 True x
8/11/1994 16:00    2.89 28 51.00 253.5 35.2 True x
8/18/1994 17:00    2.05 25 30.00 82.1 6.7 True x
8/19/1994 10:23    2.18 26 38.00 103.5 10.6 True x
8/19/1994 10:47    2.18  37.00 103.5 10.5 True x
8/25/1994 16:30    1.63 20 41.00 29.1 3.3 True x
9/2/1994 16:00    1.91 25 28.00 61.4 4.7 True x
9/8/1994 16:00    1.84 23 27.00 52.3 3.8 True x
9/15/1994 16:30    1.70 25 29.00 36 2.9 True x
9/22/1994 17:00    1.85 12 36.00 53.6 5.3 True x
9/29/1994 16:00    1.80 15 22.00 47.5 2.8 True x
10/6/1994 16:30    1.85 18 16.00 53.6 2.3 True x
10/12/1994 11:01    1.85 17 25.00 53.6 3.7 True x
10/12/1994 11:36    1.85  24.00 53.6 3.5 True x
10/13/1994 16:00    1.71 12 20.00 37.1 2.0 True x
10/20/1994 16:00    1.73 15 22.00 39.3 2.4 True x
11/3/1994 16:00    1.76 13 89.00 42.7 10.4 True x
11/10/1994 13:00    3.34 16 102.00 365.2 101.5 True x
11/17/1994 16:00    3.68 14 149.00 456.7 184.7 True x
11/24/1994 16:30    3.89 15 151.00 517.2 212.1 True x
12/1/1994 16:00    4.31 153.00 642.1 265.5 True x
12/8/1994 16:00    5.53 121.00 1045 341.5 True x
12/15/1994 16:30    4.32 34.00 645.1 60.5 True x
12/22/1994 16:00    3.63 34.00 442.8 41.0 True x
12/28/1994 16:00    3.95 10 39.00 535 56.7 True x
1/5/1995 16:00    4.08 17.00 573.3 27.2 True x
1/11/1995 16:30    4.37 11 17.00 660.5 31.4 True x
1/18/1995 16:30    13.57 107.00 4294 1,247.3 True x
1/26/1995 10:34    9.94 63.00 2754 475.5 True x
1/26/1995 11:15    9.83 44.00 2707 325.3 True x
3/9/1995 16:00    23.68 13 253.00 9634 6,606.3 True x
3/16/1995 16:00    24.10 18 149.00 9956 4,029.2 True x
3/17/1995 10:25    24.97 13 165.00 10640 4,747.9 True x
3/17/1995 11:08    24.95 13 157.00 10620 4,502.7 True x
3/23/1995 16:00    12.43 94.00 3804 974.9 True x
3/30/1995 16:00    5.82 93.00 1149 289.9 True x
4/6/1995 15:00    3.58 21 39.00 429 45.5 True x
4/13/1995 15:00    3.50 15 38.00 407.3 42.6 True x
4/20/1995 15:00    6.35 20 68.00 1339 246.8 True x
4/27/1995 16:00    11.85 15 221.00 3556 2,127.3 True x
5/4/1995 10:29    13.88 12 183.00 4428 2,197.9 True x
5/4/1995 11:10    13.86 12 186.00 4419 2,222.0 True x
5/5/1995 16:00    12.07 20 183.00 3650 1,806.8 True x
5/12/1995 16:30    11.91 19 240.00 3582 2,323.9 True x
5/18/1995 16:30    28.41 17 25.00 13970 976.7 True x
5/25/1995 16:00    34.18 21 31.00 30960 2,592.2 True x
6/1/1995 16:00    31.93 21 25.00 20120 1,364.9 True x
6/8/1995 16:00    27.12 26 363.00 12560 12,329.3 True x
6/9/1995 10:32    30.32 23 26.00 16220 1,146.0 True x
6/9/1995 10:50    30.31 25 24.00 16210 1,054.9 True x
6/9/1995 11:29    30.31 25 23.00 16210 1,024.9 True x
6/15/1995 16:00    10.68 28 313.00 3064 2,594.6 True x
6/22/1995 16:30    5.24 28 346.00 945.3 884.1 True x
6/29/1995 16:00    12.18 30 331.00 3697 3,311.1 True x
7/6/1995 16:00    4.40 30 68.00 669.8 124.7 True x
7/13/1995 16:30    3.94 36 56.00 532 80.4 True x
7/20/1995 10:15    2.67 29 54.00 200.8 29.5 True x
7/20/1995 10:40    2.67 29 52.00 200.8 28.2 True x
7/20/1995 16:30    3.35 27 96.00 367.8 95.9 True x
7/27/1995 16:30    5.37 30 94.00 989.7 251.5 True x
8/10/1995 16:00    16.09 34 737.00 5390 10,725.7 True x
8/17/1995 15:30    5.37 34 36.00 989.7 97.4 True x
8/24/1995 15:30    2.39 35 37.00 142 14.3 True x
8/31/1995 16:30    2.09 33 30.00 88.4 7.4 True x
9/7/1995 16:30    2.05 34 31.00 82.1 6.9 True x
9/8/1995 10:10    1.85 24 32.00 53.6 4.7 True x
9/8/1995 10:34    1.85 24 32.00 53.6 4.7 True x
9/14/1995 16:30    1.87 26 32.00 56.1 5.0 True x
9/22/1995 16:30    1.79 11 32.00 46.3 4.0 True x
9/28/1995 16:00    1.68 25 19.00 33.9 1.8 True x
10/5/1995 16:30    1.69 21 17.00 35 1.7 True x
10/12/1995 16:30    1.70 22 15.00 36 1.5 True x
10/19/1995 16:30    1.65 23 17.00 31 1.5 True x
10/20/1995 10:25    1.88 14 19.00 57.4 3.0 True x
10/20/1995 10:55    1.88 14 19.00 57.4 3.1 True x
10/26/1995 16:30    1.83 18 27.00 51.1 3.9 True x
11/2/1995 16:30    1.55 21.00 22 1.3 True x
11/8/1995 16:30    3.30 217.00 355 208.8 True x
11/16/1995 16:30    2.47 73.00 157.9 31.1 True x
11/22/1995 16:30    2.00 29.00 74.5 6.0 True x
11/30/1995 16:30    1.67 80.00 32.9 7.1 True x
12/7/1995 10:26    1.74 27.00 40.4 3.0 True x
12/7/1995 10:54    1.74 30.00 40.4 3.3 True x
12/7/1995 16:30    1.71 33.00 37.1 3.4 True x
12/21/1995 16:30    2.76 45.00 221.6 27.5 True x
12/28/1995 16:30    3.93 43.00 529 62.5 True x
1/4/1996 16:30    5.43 16.00 1010 45.4 True x
1/11/1996 16:30    2.55 14.00 174.5 7.1 True x
1/18/1996 16:30    15.74 323.00 5235 4,576.3 True x
1/25/1996 16:30    20.57 270.00 7653 5,589.0 True x
2/1/1996 16:30    20.83 147.00 7802 3,097.2 True x
2/8/1996 16:30    5.69  34.00 1102 103.8 True x
2/15/1996 16:30    4.20 35.00 608.8 58.3 True x
2/16/1996 11:33    4.25 29.00 623.8 50.3 True x
2/16/1996 11:57    4.25 26.00 623.8 44.0 True x
2/22/1996 16:30    3.48 14 29.00 401.9 32.2 True x
3/7/1996 16:30    7.08 115.00 1610 500.7 True x
3/16/1996 16:00    4.05 86.00 564.5 131.5 True x
3/21/1996 16:30    6.02 48.00 1222 158.9 True x
3/29/1996 16:30    15.69 189.00 5213 2,661.0 True x
4/3/1996 10:43    21.02 11 364.00 7912 7,796.8 True x
4/3/1996 11:12    21.02 11 357.00 7912 7,640.3 True x
4/4/1996 16:30    21.06 234.00 7936 5,018.3 True x
4/11/1996 16:30    9.55 20 144.00 2589 1,012.6 True x
4/18/1996 16:30    4.04 18 55.00 561.6 84.7 True x
4/25/1996 16:30    25.16 21 214.00 10790 6,258.3 True x
5/2/1996 16:30    33.35 25 120.00 26490 8,597.4 True x
5/9/1996 11:27    32.93 21 63.00 24440 4,175.0 True x
5/9/1996 12:13    32.92 21 54.00 24390 3,604.3 True x
5/9/1996 12:16    32.92 21 48.00 24390 3,211.1 True x
5/9/1996 16:30    32.51 13 47.00 22520 2,903.3 True x
5/16/1996 16:30    30.50 27 35.00 15890 1,543.0 True x
5/23/1996 16:30    27.53 32 46.00 13000 1,626.6 True x
5/30/1996 16:30    19.90 20 249.00 7275 4,893.6 True x
6/6/1996 16:30    22.20 26 406.00 8623 9,467.9 True x
6/13/1996 16:30    24.68 21 200.00 10410 5,636.6 True x
6/19/1996 10:35    27.91 27 37.00 13410 1,353.3 True x
6/19/1996 11:15    27.88 27 36.00 13380 1,310.2 True x
6/27/1996 16:30    9.90 32 94.00 2737 701.7 True x
7/5/1996 16:30    3.03 31 57.00 289 44.9 True x
7/12/1996 16:30    2.73 29 103.00 214.6 59.9 True x
7/18/1996 16:30    3.34 31 70.00 365.2 69.5 True x
7/24/1996 16:30    3.00 25 96.00 282 73.8 True x
8/5/1996 16:30    2.02 32 28.00 77.5 6.0 True x
8/8/1996 16:30    1.90 26 25.00 60 4.1 True x
8/9/1996 10:24    2.96 27 37.00 271.5 27.1 True x
8/9/1996 10:53    2.96 27 35.00 271.5 26.3 True x
8/16/1996 16:30    1.98 28 22.00 74.5 4.6 True x
8/22/1996 16:30    1.83 32 20.00 51.1 2.9 True x
9/5/1996 16:30    2.50 22 49.00 164 22.0 True x
9/12/1996 16:30    4.60 14 126.00 732.8 251.1 True x
9/19/1996 10:26    5.56 19 137.00 1056 393.4 True x
9/19/1996 10:59    5.55 19 138.00 1052 394.1 True x
9/19/1996 16:30    5.27 18 121.00 955.5 313.5 True x
9/26/1996 16:30    2.37 16 72.00 138.2 26.9 True x
10/3/1996 16:30    1.85 20 52.00 53.6 7.6 True x
10/10/1996 16:30    1.77 13 38.00 43.9 4.5 True x
10/17/1996 16:30    1.73 22 29.00 39.3 3.1 True x
10/24/1996 16:30    2.35 13 27.00 134.3 10.0 True x
10/31/1996 16:30    2.04 10 12.00 80.5 2.8 True x
11/6/1996 10:45    2.03 12 17.00 79 3.6 True x
11/6/1996 11:11    2.03 12 17.00 79 3.6 True x
11/8/1996 16:30    11.69 283.00 3489 2,667.5 True x
11/15/1996 16:30    3.10 35.00 305.6 29.2 True x
11/22/1996 16:30    12.34 127.00 3765 1,295.8 True x
11/29/1996 16:30    14.12 127.00 4531 1,557.5 True x
12/7/1996 16:30    13.42 119.00 4229 1,362.7 True x
12/12/1996 16:30    4.86 90.00 817.8 199.3 True x
12/22/1996 16:00    8.78 34.00 2270 213.7 True x
12/27/1996 16:30    13.30 171.00 4178 1,932.6 True x
1/2/1997 16:30    12.30 722.00 3748 7,316.1 True x
1/7/1997 10:54    14.68 276.00 4772 3,564.7 True x
1/7/1997 11:26    14.64 270.00 4754 3,470.4 True x
1/17/1997 16:30    7.15 30.00 1635 134.5 True x
1/23/1997 16:30    22.00 518.00 8500 11,902.2 True x
1/30/1997 16:30    26.89 124.00 12320 4,153.4 True x
2/6/1997 11:31    27.25 64.00 12700 2,207.7 True x
2/6/1997 12:11    27.24 58.00 12680 2,001.2 True x
2/6/1997 16:30    26.62 75.00 12060 2,445.3 True x
2/13/1997 16:30    9.25 48.00 2463 319.4 True x
2/20/1997 16:30    11.60 160.00 3451 1,496.5 True x
2/27/1997 16:30    18.33 1,467.00 6447 25,544.9 True x
3/6/1997 16:30    27.60 148.00 13070 5,237.5 True x
3/13/1997 16:30    27.73 79.00 13210 2,833.5 True x
3/20/1997 16:30    28.07 22 96.00 13590 3,550.9 True x
3/24/1997 11:20    27.74 78.00 13220 2,792.7 True x
3/24/1997 11:50    27.74 79.00 13220 2,842.4 True x
4/3/1997 16:30    14.23 21 133.00 4578 1,649.8 True x
4/10/1997 16:30    10.09 12 114.00 2817 869.4 True x
4/17/1997 16:30    5.18 16 70.00 925 176.6 True x
4/24/1997 16:30    10.72 19 181.00 3081 1,506.0 True x
5/1/1997 16:30    3.70 19 68.00 462.4 85.3 True x
5/7/1997 10:38    8.64 13 115.00 2214 688.8 True x
5/7/1997 11:03    8.64 13 118.00 2214 708.5 True x
5/8/1997 16:30    2.98 20 41.00 276.7 30.9 True x
6/5/1997 16:30    17.61 22 262.00 6092 4,322.8 True x
6/12/1997 16:30    16.07 26 167.00 5381 2,433.4 True x
6/20/1997 11:09    25.23 23 88.00 10840 2,596.2 True x
6/20/1997 11:39    25.24 23 86.00 10850 2,540.8 True x
6/20/1997 16:30    25.31 31 81.00 10910 2,398.2 True x
6/26/1997 16:30    7.10 21 74.00 1617 323.4 True x
7/3/1997 16:30    3.10 27 63.00 305.6 52.4 True x
7/17/1997 16:30    2.97 28 390.00 274.1 288.8 True x
7/24/1997 16:30    9.21 29 383.00 2447 2,533.4 True x
7/31/1997 16:30    1.95 30 39.00 67.1 7.1 True x
8/7/1997 16:30    1.95 27 38.00 67.1 6.9 True x
8/11/1997 10:34    1.99 24 43.00 73 8.6 True x
8/11/1997 11:02    1.99 24 37.00 73 7.4 True x
8/14/1997 16:30    6.66 28 65.00 1453 255.5 True x
8/21/1997 16:30    2.93 30 67.00 263.7 48.3 True x
8/28/1997 16:30    2.00 22 42.00 74.5 8.5 True x
9/4/1997 16:30    1.83 21 23.00 51.1 3.3 True x
9/11/1997 16:30    1.77 20 24.00 43.9 2.9 True x
9/18/1997 10:14    2.07 23 20.00 85.2 4.7 True x
9/18/1997 10:42    2.07 23 22.00 85.2 5.2 True x
9/18/1997 16:30    1.90 20 24.00 60 4.0 True x
9/25/1997 16:30    2.05 18 16.00 82.1 3.8 True x
10/2/1997 16:30    2.00 18 15.00 54.4 2.3 True x
10/9/1997 16:30    1.85 18 16.00 38.5 1.7 True x
10/16/1997 16:30    1.73 12 10.00 27.9 0.8 True x
10/23/1997 16:30    1.65 10 10.00 21.8 0.6 True x
10/29/1997 16:30    1.76 11 10.00 30.4 0.9 True x
11/20/1997 16:30    1.65 12 8.00 21.8 0.5 True x
11/27/1997 16:00    1.78 16 9.00 32.1 0.8 True x
12/4/1997 16:00    2.06 10.00 61.6 1.8 True x
12/11/1997 16:30    2.25 8.00 87.3 2.0 True x
12/18/1997 10:25    2.11 7.00 67.9 1.5 True x
12/18/1997 10:53    2.11 7.00 67.9 1.5 True x
12/18/1997 16:30    2.05 9.00 60.3 1.5 True x
1/2/1998 16:30    8.50 12 269.00 2003 1,456.9 True x
1/9/1998 16:00    18.59 334.00 6302 5,684.3 True x
1/15/1998 16:30    5.26 49.00 936 124.9 True x
1/22/1998 16:30    6.91 67.00 1454 265.9 True x
1/23/1998 10:49    4.56 47.00 718.6 93.0 True x
1/23/1998 11:14    4.60 47.00 731.1 94.6 True x
1/29/1998 16:30    7.20 147.00 1550 619.3 True x
2/5/1998 16:30    4.86 143.00 814 316.0 True x
2/12/1998 16:30    18.39 143.00 6206 2,412.2 True x
2/19/1998 16:30    12.65 151.00 3621 1,484.0 True x
2/26/1998 16:30    9.50  153.00 2370 983.1 True x
3/5/1998 11:24    6.73 102.00 1394 385.5 True x
3/5/1998 11:50    6.72 98.00 1391 370.4 True x
3/5/1998 16:30    6.54 68.00 1333 248.0 True x
3/12/1998 16:30    10.35 413.00 2694 3,007.0 True x
3/19/1998 16:30    16.70 10 446.00 5408 6,512.9 True x
3/26/1998 16:30    23.75 20 117.00 9623 3,064.0 True x
4/2/1998 16:30    16.40 20 139.00 5270 1,991.7 True x
4/9/1998 16:30    14.14 22 143.00 4257 1,647.9 True x
4/16/1998 16:30    27.10 15 97.00 12390 3,266.0 True x
4/23/1998 10:24    27.03 14 59.00 12330 1,978.4 True x
4/23/1998 10:55    27.03 14 60.00 12330 2,009.4 True x
4/23/1998 16:30    21.35 18 46.00 7942 987.2 True x
4/30/1998 16:30    25.64 20 55.00 11110 1,652.0 True x
5/7/1998 16:30    29.75 18 103.00 15020 4,214.5 True x
5/14/1998 16:30    23.20 20 106.00 9238 2,661.0 True x
5/21/1998 16:30    21.53 18 122.00 8068 2,678.9 True x
5/28/1998 16:30    17.45 16 115.00 5759 1,793.3 True x
6/4/1998 10:14    8.74 23 82.00 2089 463.7 True x
6/4/1998 10:40    8.72 23 80.00 2082 451.3 True x
6/11/1998 16:30    8.30 20 79.00 1931 412.3 True x
6/18/1998 16:30    19.20 22 78.00 6618 1,406.4 True x
6/25/1998 16:30    18.20 30 80.00 6115 1,333.8 True x
7/2/1998 16:30    17.54 22 126.00 5801 1,988.5 True x
7/9/1998 16:30    17.12 23 130.00 5604 1,967.7 True x
7/16/1998 16:30    15.36 28 166.00 4797 2,154.0 True x
7/23/1998 16:30    13.05 26 179.00 3789 1,835.3 True x
7/30/1998 16:30    11.18 28 177.00 3020 1,445.2 True x
8/6/1998 16:30    21.66 25 64.00 8159 1,422.5 True x
8/7/1998 12:54    19.87 24 188.00 7021 3,578.7 True x
8/7/1998 13:26    19.96 24 185.00 7076 3,550.9 True x
8/13/1998 16:30    19.54 26 58.00 6821 1,083.6 True x
9/3/1998 16:30    2.48 22 25.00 125 8.7 True x
9/10/1998 16:30    2.35 20 28.00 102.8 8.0 True x
10/1/1998 16:30    7.68 19 99.00 1714 462.7 True x
10/8/1998 16:30    6.51 18 97.00 1323 349.6 True x
10/16/1998 11:34    2.84 17 46.00 198.3 25.0 True x
10/16/1998 11:52    2.84 17 50.00 198.3 26.8 True x
11/6/1998 16:30    3.05 27.00 249.4 18.2 True x
11/13/1998 16:30    3.04 15 41.00 246.9 27.8 True x
11/20/1998 16:30    2.95 13 43.00 224.3 26.6 True x
12/11/1998 11:14    4.11 49.00 573.7 76.9 True x
12/11/1998 11:41    4.10 38.00 570.6 59.9 True x
1/15/1999 16:30    22.11 324.00 8476 7,427.6 True x
1/21/1999 16:30    30.18 235.00 15580 9,897.9 True x
1/28/1999 16:30    32.90 75.00 23050 4,680.1 True x
2/4/1999 16:30    31.90 75.00 19050 3,889.7 True x
2/5/1999 11:20    31.76 66.00 18700 3,366.0 True x
2/5/1999 11:56    31.76 67.00 18700 3,408.9 True x
2/11/1999 16:30    31.43 11 151.00 17900 7,309.0 True x
2/18/1999 16:30    27.55 130.00 12790 4,494.4 True x
3/4/1999 16:30    22.30 249.00 8608 5,798.1 True x
3/11/1999 16:30    23.33 110.00 9329 2,782.3 True x
3/18/1999 13:54    21.84 82.00 8286 1,850.9 True x
3/18/1999 14:22    21.82 82.00 8272 1,842.1 True x
3/20/1999 16:30    11.37 100.00 3096 836.8 True x
3/28/1999 16:30    6.43 12 70.00 1297 246.0 True x
4/11/1999 16:30    26.90 10 63.00 12210 2,101.8 True x
4/17/1999 16:30    21.10 96.00 7769 2,027.7 True x
4/22/1999 16:30    9.75 20 90.00 2464 600.1 True x
4/29/1999 16:30    15.00 17 298.00 4636 3,732.6 True x
5/7/1999 10:44    17.44 20 370.00 5754 5,753.0 True x
5/7/1999 11:32    17.48 20 349.00 5773 5,443.1 True x
5/10/1999 16:30    15.46 25 133.00 4842 1,751.0 True x
5/17/1999 16:30    8.50 19 97.00 2003 527.7 True x
5/24/1999 16:30    5.25 23 89.00 933 225.7 True x
5/31/1999 16:30    3.80 27 86.00 472.8 110.7 True x
6/7/1999 16:30    15.90 31 155.00 5041 2,111.6 True x
6/10/1999 10:47    15.94 28 157.00 5059 2,153.1 True x
6/10/1999 11:26    15.95 28 157.00 5064 2,147.5 True x
6/24/1999 16:30    4.67 24 71.00 753.1 145.8 True x
7/1/1999 16:30    16.84 22 608.00 5473 8,988.8 True x
7/8/1999 16:30    23.95 26 66.00 9765 1,742.5 True x
7/13/1999 16:30    20.65 28 66.00 7488 1,347.5 True x
7/20/1999 16:30    13.51 32 431.00 3985 4,646.9 True x
7/22/1999 10:38    4.26 29 69.00 621.1 117.3 True x
7/22/1999 11:09    4.24  68.00 614.7 113.9 True x
7/27/1999 16:30    4.32 30 42.00 640.5 73.3 True x
8/4/1999 16:30    2.50 28 46.00 128.6 16.0 True x
8/12/1999 16:30    2.05 30 23.00 60.3 3.8 True x
8/19/1999 16:30    1.94 25 25.00 47.7 3.3 True x
8/26/1999 16:30    1.86 24 29.00 39.5 3.1 True x
9/9/1999 16:30    1.68 21 27.00 24 1.8 True x
9/16/1999 16:30    1.64 18 18.00 21.1 1.0 True x
9/23/1999 16:30    1.60 14 17.00 18.4 0.9 True x
9/30/1999 16:30    1.59 15 16.00 17.8 0.8 True x
10/7/1999 16:30    1.52 17 33.00 13.6 1.2 True x
10/13/1999 16:30    1.95 18 30.00 48.8 4.1 True x
10/14/1999 10:18    1.86 17 45.00 39.5 4.9 True x
10/14/1999 10:52    1.86  29.00 39.5 3.1 True x
10/28/1999 16:30    1.67 17 24.00 23.3 1.5 True x
11/5/1999 16:30    1.58 18 17.00 17.1 0.8 True x
11/12/1999 16:30    1.95 14 21.00 48.8 2.9 True x
12/9/1999 10:34    1.88 8.00 41.5 0.9 True x
12/9/1999 11:11    1.88  8.00 41.5 1.0 True x
1/6/2000 16:30    3.86 10 57.00 492.5 75.9 True x
1/13/2000 16:30    2.75 72.00 178.3 34.8 True x
1/20/2000 10:42    2.26 22.00 88.8 5.5 True x
1/20/2000 11:07    2.26  20.00 88.8 5.0 True x
1/20/2000 16:30    2.46 209.00 121.4 68.5 True x
1/27/2000 16:30    2.17 189.00 75.9 38.8 True x
2/17/2000 16:30    1.86 202.00 39.5 21.6 True x
2/24/2000 16:30    20.28 13 200.00 7266 3,942.9 True x
3/9/2000 16:30    5.72 13 55.00 1074 162.4 True x
3/23/2000 16:30    15.35 20 188.00 4792 2,443.3 True x
3/30/2000 16:30    5.04 12 70.00 871.6 166.1 True x
4/9/2000 16:30    13.18 12 629.00 3844 6,530.3 True x
4/17/2000 16:30    4.15 83.00 586.2 132.0 True x
4/23/2000 16:30    4.87 13 82.00 817.3 181.5 True x
4/25/2000 10:34    4.54 14 71.00 712.4 137.7 True x
4/25/2000 11:05    4.56  68.00 718.6 132.6 True x
4/30/2000 16:30    4.75 14 79.00 778.6 166.5 True x
5/7/2000 16:30    3.95 20 62.00 522.8 87.9 True x
5/14/2000 16:30    9.06 16 203.00 2206 1,209.3 True x
5/21/2000 16:30    3.48 17 86.00 373.6 87.6 True x
5/24/2000 10:28    4.49 22 103.00 696.6 194.3 True x
5/24/2000 10:59    4.48  96.00 696.3 181.9 True x
5/29/2000 16:30    6.52 23 146.00 1326 525.1 True x
6/4/2000 16:30    10.30 24 138.00 2675 1,000.4 True x
6/11/2000 16:30    2.68 28 60.00 163.5 26.9 True x
6/18/2000 16:30    22.21 23 281.00 8545 6,494.9 True x
6/25/2000 16:30    25.00 21 40.00 10600 1,157.8 True x
7/2/2000 16:30    25.17 25 29.00 10730 863.9 True x
7/9/2000 16:30    19.60 35 67.00 6858 1,246.6 True x
7/12/2000 14:22    23.22 26 90.00 9252 2,268.1 True x
7/12/2000 14:57    23.27  85.00 9287 2,135.4 True x
7/16/2000 16:30    26.06 29 36.00 11450 1,138.3 True x
7/23/2000 16:30    17.19 23 77.00 5637 1,175.6 True x
7/30/2000 16:30    13.36 24 296.00 3921 3,138.4 True x
8/6/2000 16:30    8.67 26 133.00 2064 742.1 True x
8/13/2000 16:30    12.90 26 134.00 3726 1,353.1 True x
8/18/2000 10:26    5.18 26 48.00 912.4 118.8 True x
8/18/2000 10:57    5.13  46.00 897.8 112.2 True x
8/20/2000 16:30    3.38 25 42.00 342.3 38.8 True x
8/28/2000 16:30    13.69 30 165.00 4062 1,813.5 True x
9/5/2000 16:30    12.32 22 90.00 3484 848.5 True x
9/11/2000 16:30    4.52 20 74.00 706.2 141.9 True x
9/24/2000 16:30    4.88 12 74.00 820.6 164.4 True x
10/1/2000 16:30    11.44 23 149.00 3124 1,258.6 True x
10/8/2000 16:30    10.63 14 108.00 2803 820.4 True x
10/13/2000 11:15    11.65 13 82.00 3209 714.7 True x
10/13/2000 11:51    11.66  87.00 3213 762.0 True x
10/16/2000 16:30    11.65 15 89.00 3209 779.2 True x
10/24/2000 16:30    3.22 22 34.00 295.4 27.1 True x
11/5/2000 16:30    2.84 13 21.00 198.3 11.7 True x
11/9/2000 10:12    5.76 14 79.00 1087 232.7 True x
11/9/2000 10:43    5.78  71.00 1093 210.3 True x
11/13/2000 16:30    12.35 133.00 3496 1,256.4 True x
11/27/2000 16:30    14.36 207.00 4353 2,444.2 True x
12/4/2000 16:30    13.53 72.00 3994 786.0 True x
12/10/2000 16:30    12.45 127.00 3538 1,221.2 True x
12/17/2000 16:30    10.69 128.00 2826 978.8 True x
1/14/2001 16:30    14.36 311.00 4353 3,659.8 True x
1/22/2001 16:30    14.84 72.00 4565 891.0 True x
2/1/2001 16:30    17.81 337.00 5929 5,409.8 True x
2/2/2001 11:00    17.62 283.00 5839 4,467.6 True x
2/2/2001 11:29    17.60  290.00 5829 4,574.7 True x
2/7/2001 16:30    15.56 12 103.00 4887 1,362.8 True x
2/12/2001 16:30    19.88 258.00 7027 4,902.9 True x
2/19/2001 16:30    23.52 11 150.00 9461 3,854.4 True x
2/28/2001 16:30    21.04 290.00 7727 6,054.5 True x
3/5/2001 16:30    17.03 186.00 5562 2,796.0 True x
3/12/2001 16:30    4.86 12 38.00 814 84.9 True x
3/19/2001 16:30    6.54 10 39.00 1333 143.9 True x
3/21/2001 10:03    6.17 31.00 1214 103.2 True x
3/21/2001 10:40    6.17  31.00 1214 102.2 True x
3/27/2001 16:30    4.09 24.00 567.6 37.9 True x
4/2/2001 16:30    9.32 16 174.00 2303 1,084.8 True x
4/10/2001 16:30    4.27 28 46.00 624.3 79.1 True x
4/17/2001 16:30    3.09 24 41.00 259.9 28.8 True x
4/24/2001 16:30    2.42 28 38.00 114.5 11.9 True x
5/10/2001 09:58    2.58 24 52.00 143.6 20.3 True x
5/10/2001 10:24    2.58  47.00 143.6 18.4 True x
5/28/2001 16:30    3.83 22 60.00 482.6 78.6 True x
6/4/2001 16:30    3.47 30 54.00 370.4 54.2 True x
6/10/2001 16:30    12.23 30 223.00 3447 2,080.0 True x
6/18/2001 16:30    5.36 34 54.00 965.7 141.1 True x
6/21/2001 09:58    5.61 27 82.00 1041 231.5 True x
6/21/2001 10:28    5.69  86.00 1065 247.8 True x
6/24/2001 16:30    4.47 30 73.00 689.9 136.6 True x
7/1/2001 16:30    4.32 28 76.00 640.5 131.6 True x
7/16/2001 16:30    4.81 29 83.00 797.8 180.6 True x
7/22/2001 16:30    4.48 32 47.00 693.3 89.5 True x
7/26/2001 10:04    3.44 28 83.00 360.9 81.8 True x
7/26/2001 10:34    3.44  83.00 360.9 80.9 True x
7/29/2001 16:30    4.72 32 73.00 769 152.1 True x
8/12/2001 16:30    2.00 31 28.00 54.4 4.1 True x
8/20/2001 16:30    4.27 29 403.00 624.3 680.6 True x
9/3/2001 16:30    2.25 29 61.00 87.3 14.5 True x
9/7/2001 14:37    2.02 27 45.00 56.7 6.9 True x
9/7/2001 14:58    2.02  44.00 56.7 6.9 True x
9/10/2001 16:30    1.90 22 44.00 43.5 5.2 True x
9/17/2001 16:30    1.84 27 25.00 37.6 2.6 True x
9/23/2001 16:30    1.85 16 39.00 38.5 4.1 True x
10/1/2001 16:30    1.73 20 33.00 27.9 2.5 True x
10/8/2001 16:30    1.65 19 165.00 21.8 9.8 True x
10/15/2001 16:30    19.58 17 285.00 6846 5,285.2 True x
10/22/2001 16:30    15.66 21 151.00 4932 2,018.5 True x
10/24/2001 13:24    20.03 17 109.00 7118 2,096.4 True x
10/24/2001 13:59    20.01  104.00 7106 2,013.3 True x
10/29/2001 16:30    12.81 13 133.00 3688 1,325.3 True x
11/5/2001 16:30    6.49 11 43.00 1316 153.5 True x
11/13/2001 16:30    2.80 11 30.00 189.3 15.3 True x
11/27/2001 16:30    10.82 354.00 2878 2,756.9 True x
12/3/2001 16:30    18.65 89.00 6331 1,524.0 True x
12/4/2001 13:45    18.86 81.00 6432 1,415.6 True x
12/4/2001 14:19    18.81  75.00 6408 1,302.0 True x
12/10/2001 16:30    11.95 68.00 3331 612.3 True x
12/18/2001 16:30    28.21 111.00 13410 4,035.4 True x
12/27/2001 16:30    27.63 51.00 12860 1,792.2 True x
1/3/2002 16:30    24.50 150.00 10200 4,152.2 True x
1/6/2002 16:30    7.95 69.00 1808 338.9 True x
1/15/2002 13:21    4.07 7.00 561.4 11.5 True x
1/15/2002 13:54    4.05  8.00 555.2 12.0 True x
2/3/2002 16:30    23.16 216.00 9211 5,373.7 True x
2/10/2002 16:30    18.48 105.00 6249 1,771.6 True x
2/18/2002 16:30    4.63 10 39.00 740.5 79.9 True x
2/25/2002 16:30    13.40 180.00 3938 1,917.0 True x
3/4/2002 16:50    11.70 188.00 3230 1,642.1 True x
3/5/2002 10:57    12.13 179.00 3405 1,647.4 True x
3/5/2002 11:33    12.13  187.00 3405 1,723.8 True x
3/13/2002 16:30    21.70 19 252.00 8187 5,576.0 True x
3/19/2002 16:30    27.63 132.00 12860 4,594.2 True x
3/25/2002 16:30    27.05 15 120.00 12340 4,023.5 True x
4/1/2002 16:30    19.40 14 92.00 6738 1,691.8 True x
4/19/2002 10:22    18.84 23 79.00 6422 1,380.4 True x
4/19/2002 11:00    18.81  75.00 6408 1,303.8 True x
4/29/2002 16:30    24.42 19 77.00 10130 2,125.5 True x
5/6/2002 16:30    22.83 21 74.00 8979 1,805.8 True x
5/13/2002 16:30    32.10 11 61.00 19690 3,271.0 True x
5/17/2002 12:52    34.01 19 37.00 30060 3,070.4 True x
5/17/2002 13:24    34.03  44.00 30190 3,592.9 True x
5/23/2002 16:30    32.72 24 33.00 22250 2,015.5 True x
6/3/2002 16:30    21.77 29 33.00 8237 741.1 True x
6/10/2002 16:30    6.41 26 113.00 1291 396.2 True x
6/18/2002 16:30    9.75 30 247.00 2464 1,647.2 True x
6/25/2002 16:30    10.26 31 582.00 2659 4,182.2 True x
7/3/2002 16:30    3.61 28 122.00 412.9 136.4 True x
7/10/2002 16:30    2.55 33 48.00 137.8 17.9 True x
7/16/2002 16:30    2.24 27 39.00 85.9 9.2 True x
7/22/2002 10:07    2.84 29 37.00 198.3 20.3 True x
7/22/2002 10:33    2.84  41.00 198.3 22.3 True x
7/30/2002 16:30    2.16 29 40.00 74.5 8.1 True x
8/5/2002 16:30    1.90 25 82.00 43.5 9.7 True x
8/12/2002 16:30    1.85 32 30.00 38.5 3.1 True x
8/19/2002 16:30    1.79 32 22.00 33 2.0 True x
8/23/2002 10:23    1.84 29 22.00 37.6 2.3 True x
8/23/2002 10:48    1.84  22.00 37.6 2.3 True x
8/26/2002 16:30    1.83 14 33.00 36.6 3.3 True x
10/7/2002 16:30    1.85 14 33.00 38.54 3.5 True x
10/10/2002 16:30    1.83 14 35.00 36.64 3.5 True x
10/11/2002 10:47    1.85 18 31.00 38.54 3.2 True x
10/11/2002 11:19    1.85  29.00 38.54 3.0 True x
10/17/2002 16:30    1.65 11 21.00 21.82 1.3 True x
10/24/2002 16:30    1.70 14 19.00 25.53 1.3 True x
11/1/2002 16:30    4.53 60.00 709.3 115.3 True x
11/7/2002 16:30    2.41 15 55.00 112.8 17.0 True x
11/14/2002 16:30    2.88 10 47.00 207.6 26.6 True x
11/22/2002 12:30    2.33 28.00 99.62 7.6 True x
11/22/2002 12:53    2.33  27.00 99.62 7.5 True x
11/23/2002 16:30    2.16 28.00 74.54 5.7 True x
11/30/2002 16:30    1.95 20.00 48.8 2.7 True x
12/6/2002 16:30    1.93 9.00 46.64 1.3 True x
12/27/2002 16:30    4.56 44.00 718.6 86.2 True x
1/4/2003 16:30    16.33 -1 52.00 5238 744.7 True x
1/10/2003 10:46    6.77 36.00 1408 137.9 True x
1/10/2003 11:18    6.76  38.00 1404 146.7 True x
1/10/2003 16:30    3.72 26.00 447.1 32.3 True x
1/17/2003 16:30    3.25 -1 14.00 303.9 12.2 True x
1/23/2003 16:30    2.32 14.00 113.68 4.5 True x
1/31/2003 16:30    2.56 13.00 139.7 5.0 True x
2/6/2003 16:30    3.00 17.00 254.45 11.7 True x
2/15/2003 16:30    13.55 241.00 4002 2,612.7 True x
2/22/2003 16:30    25.65 -1 160.00 11120 4,817.9 True x
3/1/2003 16:30    26.18 39.00 11560 1,235.1 True x
3/7/2003 11:50    22.05 34.00 8434 789.2 True x
3/14/2003 16:30    15.48 17 233.00 4851 3,061.4 True x
3/21/2003 16:30    12.44 14 152.00 3533 1,455.9 True x
3/28/2003 16:30    5.05 20 77.00 874.5 182.1 True x
4/4/2003 16:30    5.17 18 70.00 909.5 172.8 True x
4/10/2003 10:47    6.03 10 74.00 1170 234.2 True x
4/10/2003 11:25    6.00  74.00 1161 235.0 True x
4/10/2003 16:30    10.85 12 202.00 2889 1,580.4 True x
4/17/2003 16:30    18.10 18 191.00 6067 3,131.3 True x
4/24/2003 16:30    14.60 21 154.00 4459 1,857.2 True x
5/1/2003 16:30    19.91 22 337.00 7045 6,412.5 True x
5/10/2003 16:30    26.37 19 68.00 11730 2,182.5 True x
5/15/2003 16:30    28.60 22 40.00 13317 1,459.4 True x
5/22/2003 10:17    25.37 20 30.00 10890 910.3 True x
5/22/2003 10:54    25.34  30.00 10870 904.2 True x
5/22/2003 16:30    26.08 17 31.00 11470 983.7 True x
5/31/2003 16:30    5.19 20 63.00 915.4 157.2 True x
6/7/2003 16:30    3.52 24 43.00 385.9 45.6 True x
6/14/2003 16:30    23.02 24 74.00 9114 1,824.6 True x
6/19/2003 16:30    18.91 18 63.00 6456 1,105.2 True x
6/20/2003 11:17    18.65 24 69.00 6331 1,195.9 True x
6/20/2003 11:50    18.60  75.00 6307 1,283.2 True x
6/26/2003 16:30    3.29 29 43.00 315.5 36.9 True x
7/2/2003 16:30    6.32 26 302.00 1262 1,030.9 True x
7/12/2003 16:30    8.73 26 98.00 2086 554.2 True x
7/17/2003 16:30    9.23 22 55.00 2269 342.4 True x
7/24/2003 16:30    10.29 27 22.00 2671 161.6 True x
8/1/2003 16:30    3.42 28 73.00 354.7 70.2 True x
8/8/2003 10:33    4.21 27 66.00 605.1 107.8 True x
8/8/2003 11:04    4.21  59.00 605.1 96.9 True x
8/8/2003 16:30    1.95 28 27.00 48.8 3.6 True x
8/21/2003 16:30    1.82 28 26.00 35.71 2.6 True x
8/28/2003 16:30    2.35 27 26.00 55.61 4.0 True x
9/4/2003 16:30    10.09 27 55.00 2594 385.5 True x
9/11/2003 16:30    2.25 24 9.00 87.34 2.2 True x
9/18/2003 16:30    2.00 25 29.00 64.19 5.0 True x
9/19/2003 10:38    2.18 22 36.00 80.39 8.0 True x
9/19/2003 11:00    2.18  36.00 77.29 7.6 True x
9/26/2003 16:30    4.73 12 44.00 772.2 92.4 True x
10/2/2003 16:30    2.25 21 37.00 87.3 8.8 True x
10/9/2003 16:30    1.97 23 26.00 51 3.6 True x
10/16/2003 16:30    2.43 22 40.00 116.2 12.8 True x
10/23/2003 16:30    2.41 32.00 112.8 9.8 True x
10/30/2003 16:30    1.93 21 25.00 46.6 3.2 True x
11/6/2003 11:39    1.93 14 29.00 46.6 3.7 True x
11/6/2003 12:03    1.93  29.00 46.6 3.8 True x
11/6/2003 16:30    2.28 21.00 91.9 5.3 True x
11/13/2003 16:30    2.36 18 218.00 104.5 61.6 True x
11/20/2003 16:30    5.70 11 103.00 1068 298.4 True x
11/27/2003 16:30    15.41 10 31.00 4819 410.7 True x
12/4/2003 16:30    9.39 10.00 2329 64.0 True x
12/11/2003 16:30    3.40 33.00 348.5 31.7 True x
1/9/2004 16:30    21.36 126.00 7130 2,428.8 True x
1/16/2004 16:30    23.55 105.00 8780 2,511.0 True x
1/21/2004 10:53    21.39 81.00 7910 1,735.2 True x
1/21/2004 11:35    21.36  102.00 7865 2,183.9 True x
1/22/2004 16:30    19.44 69.00 6710 1,254.2 True x
1/29/2004 16:30    5.19 20.00 959 54.3 True x
2/5/2004 16:30    5.69 21.00 1215 70.6 True x
2/12/2004 16:30    12.37 36.00 2775 272.9 True x
2/19/2004 16:30    7.80 35.00 1940 187.7 True x
2/26/2004 16:30    7.51 14 40.00 1800 197.0 True x
3/3/2004 16:30    7.23 10 64.00 1825 318.4 True x
3/4/2004 10:52    15.54 11 948.00 5695 14,589.1 True x
3/4/2004 11:28    15.71  918.00 5775 14,322.8 True x
3/11/2004 16:30    18.08 12 147.00 6057 2,405.0 True x
3/18/2004 16:30    4.74 61.00 775.4 128.3 True x
3/25/2004 16:30    4.22 23 156.00 608.3 256.7 True x
4/1/2004 16:30    18.27 53.00 6148 880.9 True x
4/8/2004 16:30    17.93 12 135.00 5986 2,183.6 True x
4/15/2004 16:30    3.25 15 96.00 303.9 79.4 True x
4/16/2004 11:13    3.81 14 35.00 476 45.4 True x
4/16/2004 11:49    3.81  32.00 476 42.3 True x
4/22/2004 16:30    7.73 18 80.00 1731 375.4 True x
4/29/2004 16:30    4.16 20 74.00 589.4 119.0 True x
5/6/2004 16:30    6.52 28 128.00 1326 459.5 True x
5/14/2004 16:30    3.33 22 88.00 327.3 78.1 True x
5/22/2004 16:30    3.63 24 68.00 419 78.0 True x
5/27/2004 16:30    20.67 25 58.00 7500 1,185.2 True x
6/3/2004 10:30    26.01 22 62.00 11410 1,915.4 True x
6/3/2004 11:10    26.02  57.00 11420 1,783.4 True x
6/13/2004 16:30    20.86 29 64.00 7615 1,318.6 True x
6/18/2004 16:30    7.51 25 84.00 1656 379.8 True x
6/24/2004 16:30    9.45 30 63.00 2351 400.2 True x
7/1/2004 16:30    3.35 30 92.00 333.3 83.5 True x
7/8/2004 16:30    11.02 32 69.00 3264.5 615.6 True x
7/9/2004 13:24    9.49 26 153.00 2640.5 1,094.5 True x
7/9/2004 13:59    9.46  162.00 2628.2 1,155.4 True x
7/22/2004 16:30    3.02 22 31.00 235.8 20.2 True x
7/29/2004 16:30    3.23 28 42.00 285 32.4 True x
8/5/2004 16:30    4.21 25 31.00 657 55.5 True x
8/12/2004 16:30    2.28 26 242.00 92 60.3 True x
8/19/2004 16:30    2.02 18 53.00 57 8.2 True x
8/20/2004 10:39    1.99 25 40.00 53 5.8 True x
8/20/2004 11:09    1.99  40.00 53 5.8 True x
8/28/2004 16:30    27.39 20 12.00 11000 384.7 True x
9/2/2004 16:30    25.23 22 12.00 11250 373.7 True x
9/9/2004 16:30    4.26 29 12.00 582 20.1 True x
9/16/2004 16:30    2.61 18 33.00 146 13.2 True x
9/23/2004 16:30    5.05 20 32.00 105 9.3 True x
9/30/2004 16:30    2.03 22 33.00 58 5.3 True x
10/7/2004 11:08    1.87 16 31.00 40 3.4 True x
10/7/2004 11:36    1.87  31.00 40 3.4 True x
10/26/2004 16:30    9.56 41.00 2595 293.6 True x
10/29/2004 16:30    19.67 24 106.00 7745 2,224.5 True x
11/6/2004 16:30    22.37 16 52.00 9385 1,325.8 True x
11/12/2004 10:21    21.86 10 226.00 8990 5,491.8 True x
11/12/2004 10:54    21.92  220.00 9140 5,433.5 True x
11/13/2004 16:30    23.18 11 54.00 10300 1,503.5 True x
11/19/2004 16:30    20.07 110.00 8070 2,408.2 True x
11/26/2004 16:30    17.44 51.00 6510 905.4 True x
12/2/2004 16:30    22.22 26.00 9380 676.6 True x
12/9/2004 16:30    23.40 224.00 9760 5,924.6 True x
12/16/2004 16:30    17.63 232.00 5730 3,602.4 True x
12/23/2004 16:30    4.36 48.00 661 86.5 True x
12/30/2004 16:30    11.60 10 60.00 4025 656.1 True x
1/6/2005 16:30    26.63 94.00 13100 3,333.6 True x
1/13/2005 16:30    32.77 40.00 24000 2,603.7 True x
1/20/2005 16:30    32.39 31.00 20650 1,756.2 True x
1/27/2005 16:30    29.18 50.00 13550 1,833.2 True x
2/4/2005 16:30    12.11 221.00 2200 1,314.3 True x
2/10/2005 11:22    18.62 215.00 6320 3,670.0 True x
2/10/2005 11:55    18.62  203.00 6320 3,476.1 True x
2/17/2005 16:30    23.09 128.00 9190 3,191.4 True x
2/25/2005 16:30    17.05 10 54.00 4805 710.5 True x
3/3/2005 16:30    7.44 24.00 689 45.8 True x
3/10/2005 16:30    4.40 20.00 638 35.2 True x
3/18/2005 10:13    3.79 48.00 436 56.5 True x
3/18/2005 10:39    3.79  42.00 436 50.6 True x
3/24/2005 16:30    6.79 19 246.00 1630 1,082.8 True x
3/31/2005 16:30    19.49 24 41.00 6390 711.3 True x
4/7/2005 16:30    9.86 244.00 755 498.5 True x
4/14/2005 16:30    13.27 27 88.00 3980 948.6 True x
4/21/2005 10:01    4.86 19 55.00 859 129.4 True x
4/21/2005 10:34    4.86  57.00 859 132.6 True x
4/21/2005 16:30    4.70 16 63.00 794 136.3 True x
4/28/2005 16:30    5.54 14 72.00 1170 230.4 True x
5/5/2005 16:30    5.47 22 54.00 820 121.7 True x
5/12/2005 16:30    3.23 21 53.00 296 43.0 True x
5/19/2005 16:30    3.63 23 53.00 401 58.0 True x
5/26/2005 16:30    2.88 31 31.00 202 17.0 True x
6/2/2005 16:30    2.56 30 33.00 138 12.4 True x
6/9/2005 11:02    2.46 26 40.00 123 13.3 True x
6/9/2005 11:31    2.46  33.00 123 11.3 True x
6/16/2005 16:30    2.52 30 190.00 136 70.1 True x
6/23/2005 16:30    2.45 32 104.00 120 33.9 True x
6/30/2005 16:30    1.99 23 59.00 53 8.5 True x
7/7/2005 16:30    1.96 33 18.00 50 2.5 True x
7/14/2005 16:30    2.22 21 43.00 83 9.6 True x
7/21/2005 10:07    2.33 29 30.00 100 8.2 True x
7/21/2005 10:30    2.33  20.00 100 5.4 True x
7/21/2005 16:30    2.36 29 85.00 104 24.0 True x
7/28/2005 16:30    1.88 30 63.00 41 7.0 True x
8/4/2005 16:30    1.66 30 33.00 23 2.1 True x
8/11/2005 16:30    1.76 29 41.00 30 3.4 True x
8/18/2005 16:30    3.29 31 21.00 307 17.5 True x
8/25/2005 16:30    2.93 30 20.00 214 12.0 True x
9/1/2005 16:30    2.63 24 21.00 150 8.8 True x
9/8/2005 16:30    1.75 30 52.00 30 4.2 True x
9/9/2005 10:06    1.72 25 29.00 29 2.3 True x
9/9/2005 10:29    1.72  28.00 29 2.2 True x
9/15/2005 16:30    1.62 27 36.00 26 2.6 True x
9/22/2005 16:30    3.82 24 20.00 432 24.2 True x
9/30/2005 16:30    2.16 20 21.00 84 4.8 True x
10/6/2005 16:30    2.15 20 20.00 80 4.4 True x
10/13/2005 11:06    1.83 18 25.00 45 3.1 True x
10/13/2005 11:30    1.83  23.00 45 2.9 True x
10/20/2005 16:30    1.65 15 17.00 28 1.3 True x
11/17/2005 16:30    18.87 477.00 6785 8,740.6 True x
11/18/2005 10:06    17.74 150.00 5990 2,430.7 True x
11/18/2005 10:41    17.69  142.00 5980 2,304.2 True x
11/23/2005 16:30    3.84 12 50.00 469 63.5 True x
12/1/2005 16:30    5.77 196.00 1220 647.8 True x
12/8/2005 16:30    2.91 39.00 191 20.4 True x
12/15/2005 16:30    2.87 39.00 236 25.1 True x
12/22/2005 16:30    2.66 31.00 135 11.5 True x
12/29/2005 16:30    2.50 38.00 106 10.9 True x
1/5/2006 16:30    3.69 11 268.00 279 201.9 True x
1/12/2006 10:14    10.07 343.00 2888 2,675.7 True x
1/12/2006 10:48    10.06  350.00 2860 2,704.4 True x
1/19/2006 16:30    13.79 87.00 4385 1,031.8 True x
1/26/2006 16:30    8.09 174.00 883 415.0 True x
2/2/2006 16:30    11.40 53.00 3375 491.2 True x
2/9/2006 16:30    6.61 55.00 1170 174.7 True x
2/16/2006 16:30    4.24 264.00 602 429.9 True x
2/17/2006 10:47    9.80 329.00 3413 3,039.2 True x
2/17/2006 11:22    10.09  521.00 3501 4,930.7 True x
2/23/2006 16:30    5.99 18 106.00 1170 335.6 True x
3/2/2006 16:30    3.73 87.00 396 93.3 True x
3/13/2006 16:30    30.48 14 182.00 17250 8,495.6 True x
3/20/2006 16:30    32.34 72.00 20400 4,006.5 True x
3/27/2006 16:30    28.49 12 91.00 12800 3,158.2 True x
4/4/2006 16:30    18.96 14 190.00 6425 3,311.8 True x
4/6/2006 10:14    16.42 13 158.00 5076 2,177.9 True x
4/6/2006 10:47    16.37  151.00 5258 2,150.2 True x
4/10/2006 16:30    17.75 28 121.00 5415 1,779.1 True x
4/17/2006 16:30    13.33 25 42.00 3790 439.9 True x
4/24/2006 16:30    8.80 18 35.00 524 50.3 True x
5/1/2006 16:30    3.85 19 177.00 455 218.0 True x
5/8/2006 16:30    7.10 18 101.00 1520 416.1 True x
5/15/2006 16:30    9.91 21 63.00 2480 424.5 True x
5/19/2006 09:54    8.49 16 64.00 1917 336.2 True x
5/19/2006 10:31    8.51  63.00 1905 328.6 True x
5/22/2006 16:30    7.40 22 58.00 1260 198.9 True x
5/29/2006 16:30    8.00 25 71.00 1775 342.7 True x
6/5/2006 16:30    20.53 25 77.00 8245 1,721.0 True x
6/12/2006 16:30    3.63 27 42.00 370 42.1 True x
6/19/2006 16:30    6.12 28 94.00 1405 358.0 True x
6/20/2006 10:54    5.21 26 171.00 826 383.6 True x
6/20/2006 11:23    5.15  145.00 803 314.7 True x
6/26/2006 16:30    3.66 24 74.00 413 83.0 True x
7/3/2006 16:30    3.30 23 191.00 248 128.0 True x
7/24/2006 16:30    7.24 29 60.00 1380 224.5 True x
7/31/2006 16:30    2.82 34 36.00 185 18.1 True x
8/7/2006 16:30    2.30 28 192.00 100 52.1 True x
8/14/2006 16:30    13.09 28 35.00 3985 377.8 True x
8/21/2006 16:30    13.70 21 32.00 4075 358.0 True x
8/28/2006 16:30    2.73 23 34.00 169 15.7 True x
9/4/2006 16:30    2.32 15 215.00 96 55.7 True x
9/11/2006 16:30    2.22 17 83.00 87 19.7 True x
9/15/2006 10:17    2.12 21 39.00 83 8.9 True x
9/15/2006 10:41    2.12  37.00 83 8.3 True x
9/18/2006 16:30    3.27 16 101.00 275 75.1 True x
9/25/2006 16:30    6.72 15 84.00 1525 349.9 True x
10/2/2006 16:30    2.52 16 30.00 139 11.5 True x
10/9/2006 16:30    2.10 20 31.00 67 5.8 True x
10/16/2006 16:30    2.83 13 188.00 209 106.3 True x
10/19/2006 11:21    9.35 12 105.00 2161 618.2 True x
10/19/2006 11:48    9.33  85.00 2156 499.2 True x
10/23/2006 16:30    5.41 50.00 517 70.7 True x
10/30/2006 16:30    16.52 105.00 4645 1,319.0 True x
11/6/2006 16:30    6.68 10 62.00 698 118.2 True x
11/13/2006 16:30    5.61 73.00 863 170.6 True x
11/20/2006 16:30    22.83 93.00 9145 2,309.4 True x
11/27/2006 16:30    17.87 69.00 5755 1,083.5 True x
12/4/2006 16:30    21.44 10 69.00 8055 1,518.7 True x
12/11/2006 16:30    13.84 11 30.00 2940 240.6 True x
12/12/2006 10:21    12.35 32.00 2110 183.1 True x
12/12/2006 10:52    12.41  19.00 2110 110.7 True x
12/18/2006 16:30    15.05 11 281.00 4295 3,269.0 True x
12/26/2006 16:30    22.53 72.00 8920 1,741.4 True x
1/2/2007 16:30    24.86 70.00 10200 1,934.0 True x
1/8/2007 16:30    23.45 53.00 9160 1,325.8 True x
1/11/2007 10:42    21.72 32.00 7472 664.2 True x
1/11/2007 11:12    21.70  44.00 7490 895.8 True x
1/15/2007 16:30    26.50 60.00 11650 1,893.4 True x
1/22/2007 16:30    29.60 40.00 15000 1,650.1 True x
1/29/2007 16:30    26.37 26.00 11050 795.1 True x
2/5/2007 16:30    5.90 84.00 935 214.0 True x
2/23/2007 10:58    17.68 150.00 6060 2,455.8 True x
2/23/2007 11:32    17.68  146.00 6060 2,402.1 True x
2/26/2007 16:30    23.67 329.00 10400 9,241.9 True x
3/5/2007 16:30    23.44 10 101.00 8855 2,433.3 True x
3/12/2007 16:30    12.80 18 46.00 1620 202.1 True x
3/19/2007 16:30    14.92 12 169.00 4450 2,031.3 True x
3/26/2007 16:30    15.10 21 76.00 3775 784.3 True x
4/2/2007 10:29    12.88 19 101.00 2685 735.3 True x
4/2/2007 11:02    12.86  94.00 2610 668.2 True x
4/2/2007 16:30    12.84 25 123.00 2590 862.2 True x
4/9/2007 16:30    14.37 14 91.00 3665 908.9 True x
4/16/2007 16:30    17.45 17 144.00 6040 2,356.4 True x
4/23/2007 16:30    9.84 22 53.00 731 105.6 True x
4/30/2007 16:30    4.44 28 40.00 643 70.8 True x
5/7/2007 16:30    6.35 27 70.00 1135 214.9 True x
5/14/2007 16:30    4.35 25 69.00 623 116.1 True x
5/16/2007 11:50    3.98 22 52.00 493 69.8 True x
5/16/2007 12:16    3.98  53.00 493 70.8 True x
5/21/2007 16:30    3.09 26 40.00 243 26.5 True x
5/28/2007 16:30    3.08 28 21.00 262 15.0 True x
6/4/2007 16:30    3.65 28 21.00 371 21.3 True x
6/11/2007 16:30    2.60 29 40.00 142 15.6 True x
6/18/2007 16:30    2.26 29 19.00 88 4.6 True x
6/21/2007 11:02    2.16 26 33.00 75 6.9 True x
6/21/2007 11:25    2.16  33.00 75 6.8 True x
6/25/2007 16:30    4.31 28 98.00 659 175.0 True x
7/2/2007 16:30    5.94 29 47.00 1195 154.6 True x
7/9/2007 16:30    3.70 33 29.00 452 36.0 True x
7/16/2007 16:30    2.39 28 113.00 109 33.5 True x
7/23/2007 16:30    7.02 30 34.00 1710 160.2 True x
7/26/2007 09:55    4.97 26 79.00 1050 226.4 True x
7/26/2007 10:28    4.97  79.00 1050 224.4 True x
7/30/2007 16:30    2.72 33 19.00 181 9.5 True x
8/6/2007 16:30    2.24 33 24.00 86 5.7 True x
8/13/2007 16:30    1.90 36 18.00 45 2.3 True x
8/20/2007 16:30    2.10 34 20.00 67 3.7 True x
8/27/2007 16:30    1.74 30 21.00 29 1.6 True x
9/3/2007 16:30    1.82 30 27.00 36 2.7 True x
9/10/2007 16:30    2.05 30 16.00 56 2.5 True x
9/17/2007 16:30    2.42 28 15.00 108 4.7 True x
9/20/2007 10:10    2.06 23 26.00 57 4.1 True x
9/20/2007 10:35    2.06  20.00 57 3.2 True x
10/12/2007 11:00    1.66 16 18.00 20 1.0 True x
10/15/2007 16:30    1.65 27 189.00 19 9.7 True x
10/22/2007 16:30    4.32 12 35.00 701 66.5 True x
10/29/2007 16:30    2.57 13 30.00 136 11.3 True x
11/5/2007 16:30    2.02 13 20.00 53 2.9 True x
11/8/2007 10:07    1.91 10 18.00 41 2.0 True x
11/8/2007 10:33    1.91  18.00 41 2.0 True x
11/12/2007 16:30    1.87 10 29.00 38 3.0 True x
11/26/2007 16:30    2.03 10.00 54 1.5 True x
12/3/2007 16:30    2.54 14.00 136 5.4 True x
12/11/2007 16:30    9.41 111.00 1940 586.6 True x
12/17/2007 16:30    16.86 25.00 4915 344.6 True x
12/24/2007 16:30    16.25 159.00 4840 2,085.1 True x
12/31/2007 16:30    7.80 32.00 1395 123.4 True x
1/8/2008 16:30    3.55 12 2,030.00 693 3,799.7 True x
1/10/2008 10:19    16.49 410.00 5934 6,584.1 True x
1/10/2008 10:49    16.52  405.00 5924 6,487.2 True x
1/14/2008 16:30    15.63 141.00 4195 1,601.0 True x
1/21/2008 16:30    10.68 28.00 4790 364.3 True x
1/28/2008 16:30    3.25 26.00 295 21.1 True x
2/4/2008 16:30    3.85 15 295.00 574 457.5 True x
2/8/2008 11:16    22.33 309.00 10900 9,120.5 True x
2/8/2008 11:47    22.37  318.00 10800 9,301.7 True x
2/11/2008 16:30    23.47 179.00 11700 5,658.4 True x
2/18/2008 16:30    25.96 63.00 13450 2,312.3 True x
2/25/2008 16:30    19.41 79.00 8000 1,727.3 True x
3/3/2008 16:30    14.17 11 49.00 4065 537.9 True x
3/10/2008 16:30    24.16 45.00 9530 1,172.8 True x
3/24/2008 16:30    33.47 133.00 25400 9,179.9 True x
3/31/2008 16:30    32.90 57.00 21800 3,373.4 True x
4/7/2008 16:30    33.06 21 35.00 22650 2,194.5 True x
4/14/2008 16:30    31.16 41.00 16800 1,870.5 True x
4/21/2008 16:30    28.92 21 70.00 13200 2,526.3 True x
4/24/2008 10:54    26.66 19 44.00 11200 1,338.8 True x
4/24/2008 11:27    26.66  45.00 11200 1,366.5 True x
4/28/2008 16:30    19.25 198.00 6120 3,287.6 True x
5/5/2008 16:30    4.54 12 401.00 659 715.0 True x
5/12/2008 16:30    24.62 15 61.00 11150 1,862.3 True x
5/19/2008 16:30    30.41 18 41.00 16500 1,858.1 True x
5/26/2008 16:30    27.46 23 22.00 11400 698.1 True x
6/2/2008 16:30    17.69 26 44.00 5545 659.1 True x
6/9/2008 16:30    11.55 29 288.00 2850 2,218.3 True x
6/12/2008 11:14    18.26 26 140.00 5490 2,075.2 True x
6/12/2008 11:49    18.28  155.00 5470 2,301.4 True x
6/16/2008 16:30    24.08 30 134.00 9590 3,469.6 True x
6/23/2008 16:30    21.49 32 55.00 7355 1,108.7 True x
6/30/2008 16:30    3.98 24 64.00 508 88.3 True x
7/7/2008 16:30    7.63 31 125.00 1400 475.6 True x
7/14/2008 16:30    13.32 30 265.00 4140 2,969.0 True x
7/21/2008 16:30    5.70 23 64.00 1150 200.1 True x
7/28/2008 16:30    3.12 30 42.00 258 29.4 True x
8/4/2008 16:30    10.52 29 160.00 3260 1,414.6 True x
8/11/2008 16:30    4.61 25 57.00 919 141.5 True x
8/18/2008 16:30    2.75 31 36.00 221 21.9 True x
8/25/2008 16:30    2.41 28 33.00 108 9.7 True x
9/1/2008 16:30    2.34 32 26.00 96 6.8 True x
9/4/2008 10:18    2.23 26 26.00 80 5.7 True x
9/4/2008 10:42    2.23  27.00 80 6.0 True x
9/8/2008 16:30    2.25 19 27.00 83 6.2 True x
9/15/2008 16:30    5.73 25 76.00 1335 276.2 True x
9/22/2008 16:30    3.56 25 54.00 414 61.2 True x
9/29/2008 16:30    2.75 25 32.00 190 16.4 True x
10/6/2008 16:30    2.07 23 37.00 59 5.9 True x
10/20/2008 16:30    2.18 17 27.00 73 5.4 True x
10/24/2008 10:49    3.03 14 32.00 277 24.5 True x
10/24/2008 11:15    3.03  35.00 277 26.7 True x
10/27/2008 16:30    5.90 56.00 1665 253.9 True x
11/3/2008 16:30    3.03 14 45.00 314 38.3 True x
11/10/2008 16:30    2.25 27.00 83 6.1 True x
11/17/2008 16:30    5.57 28.00 1125 86.3 True x
11/24/2008 16:30    3.66 28.00 377 29.3 True x
11/26/2008 10:50    3.23 25.00 247 17.2 True x
11/26/2008 11:20    3.23  24.00 247 16.4 True x
12/1/2008 16:30    2.80 23.00 163 10.3 True x
12/15/2008 16:30    4.01 47.00 517 66.6 True x
12/24/2008 16:30    12.14 14 201.00 3830 2,083.6 True x
12/29/2008 16:30    17.87 12 369.00 6230 6,219.6 True x
1/5/2009 16:30    16.02 183.00 5200 2,582.5 True x
1/12/2009 16:30    11.72 108.00 3490 1,026.1 True x
1/19/2009 16:30    3.78 33.00 439 39.4 True x
1/23/2009 10:43    3.45 12.00 313 10.6 True x
1/23/2009 11:09    3.45  17.00 313 15.0 True x
2/8/2009 16:30    17.83 12 1,051.00 6570 18,647.3 True x
2/16/2009 16:30    25.39 110.00 11400 3,390.6 True x
2/20/2009 11:02    26.49 98.00 12200 3,255.1 True x
2/20/2009 11:33    26.52  108.00 12000 3,516.0 True x
2/23/2009 16:30    25.81 -1 119.00 11100 3,570.3 True x
3/2/2009 16:30    11.98 122.00 3230 1,068.8 True x
3/9/2009 16:30    4.80 10 141.00 880 335.8 True x
3/16/2009 16:30    5.02 19 83.00 836 189.3 True x
3/23/2009 16:30    5.11 13 88.00 609 145.7 True x
3/30/2009 16:30    8.13 14 252.00 2040 1,389.9 True x
4/7/2009 16:30    20.29 399.00 7790 8,399.1 True x
4/10/2009 10:30    22.57 11 135.00 9170 3,348.3 True x
4/10/2009 10:59    22.63  176.00 9280 4,430.1 True x
4/13/2009 16:30    26.71 12 150.00 12700 5,175.0 True x
4/20/2009 16:30    29.36 22 71.00 14800 2,864.8 True x
4/27/2009 16:30    25.51 24 40.00 10800 1,188.0 True x
5/4/2009 16:30    24.29 19 69.00 1000 188.6 True x
5/11/2009 16:30    27.20 20 67.00 12300 2,250.9 True x
5/18/2009 16:30    26.74 23 50.00 12200 1,649.6 True x
5/21/2009 10:49    27.77 21 38.00 13100 1,352.3 True x
5/21/2009 11:20    27.78  41.00 13200 1,489.6 True x
5/25/2009 16:30    27.11 25 42.00 11800 1,342.0 True x
6/1/2009 16:30    24.56 25 251.00 10100 6,853.1 True x
6/8/2009 16:30    10.56 26 156.00 2560 1,080.4 True x
6/15/2009 16:30    14.05 26 148.00 4190 1,674.3 True x
6/22/2009 16:30    16.63 27 150.00 5430 2,203.8 True x
6/24/2009 11:10    15.02 28 177.00 4430 2,124.2 True x
6/24/2009 11:42    15.00  191.00 4420 2,287.6 True x
7/13/2009 16:30    8.70 26 275.00 2350 1,750.4 True x
7/20/2009 16:30    19.90 22 149.00 7250 2,925.2 True x
7/27/2009 16:30    3.68 26 62.00 356 60.0 True x
8/3/2009 16:30    13.93 29 35.00 3920 373.3 True x
8/10/2009 16:30    3.18 25 87.00 191 44.9 True x
8/17/2009 16:30    2.70 25 65.00 117 20.7 True x
8/20/2009 10:52    2.63 28 39.00 107 11.4 True x
8/20/2009 11:20    2.63  36.00 107 10.6 True x
8/24/2009 16:30    3.78 24 49.00 430 56.9 True x
8/31/2009 16:30    2.78 26 34.00 132 12.5 True x
9/7/2009 16:30    3.15 24 115.00 197 61.3 True x
9/14/2009 16:30    2.38 20 149.00 92 37.2 True x
9/21/2009 16:30    6.68 18 42.00 1660 189.1 True x
9/25/2009 11:04    14.92 22 829.00 5330 11,938.4 True x
9/25/2009 11:36    15.00  747.00 5360 10,815.3 True x
10/5/2009 16:30    3.42 16 57.00 355 54.8 False x
10/12/2009 16:30    23.86 14 100.00 9700 2,632.9 False x
10/20/2009 16:30    21.62 11 61.00 8130 1,344.1 False x
10/26/2009 16:30    20.97 14 85.00 7680 1,783.1 False x
11/2/2009 16:30    11.17 12 78.00 3020 636.9 False x
11/9/2009 16:30    3.95 12 22.00 523 32.1 False x
11/12/2009 10:48    4.79 13 29.00 791 64.0 False x
11/12/2009 11:23    4.77  30.00 785 64.7 False x
11/23/2009 16:30    20.21 207.00 7220 4,051.2 False x
11/30/2009 16:30    21.08 86.00 7760 1,807.4 False x
12/7/2009 16:30    23.35 59.00 9340 1,504.5 False x
12/14/2009 16:30    19.62 73.00 6870 1,366.0 False x
12/16/2009 11:15    21.01 111.00 7710 2,317.5 False x
12/16/2009 11:52    21.01  68.00 7710 1,416.7 False x
12/21/2009 16:30    21.46 113.00 8020 2,467.7 False x
12/28/2009 16:30    26.07 114.00 11500 3,544.8 False x
1/4/2010 16:30    27.70 53.00 12900 1,850.4 False x
1/11/2010 16:30    9.43 31.00 2190 188.2 False x
1/19/2010 16:30    7.15 32.00 1390 120.8 False x
1/25/2010 16:30    19.46 165.00 6860 3,072.7 False x
1/27/2010 11:26    19.19 124.00 6710 2,250.8 False x
1/27/2010 12:00    19.19  113.00 6710 2,050.4 False x
2/1/2010 16:30    17.64 40.00 5880 646.5 False x
2/9/2010 16:30    14.04 117.00 4120 1,307.9 False x
2/15/2010 16:30    6.00 14.00 1030 41.2 False x
2/23/2010 16:30    17.35 222.00 5730 3,437.3 False x
3/1/2010 16:30    13.59 98.00 3920 1,047.3 False x
3/8/2010 16:30    5.12 21.00 783 45.8 False x
3/15/2010 16:30    14.03 157.00 4120 1,756.8 False x
3/18/2010 10:52    13.93 11 143.00 4070 1,575.6 False x
3/18/2010 11:22    13.95  142.00 4080 1,568.9 False x
3/22/2010 16:30    19.15 670.00 6690 12,107.7 False x
4/5/2010 16:30    18.41 18 248.00 6290 4,212.9 False x
4/12/2010 16:30    13.45 18 68.00 3850 714.7 False x
4/19/2010 16:30    6.26 16 96.00 1110 290.4 False x
4/22/2010 10:12    4.04 19 39.00 505 53.4 False x
4/22/2010 10:41    4.04  32.00 505 44.5 False x
4/26/2010 16:30    7.59 20 106.00 1540 443.6 False x
5/3/2010 16:30    28.28 17 101.00 12800 3,494.9 False x
5/10/2010 16:30    18.41 18 201.00 6290 3,428.5 False x
5/17/2010 16:30    12.75 21 150.00 3540 1,436.1 False x
5/24/2010 16:30    12.71 28 68.00 3520 652.6 False x
5/31/2010 16:30    5.36 28 60.00 849 138.8 False x
6/7/2010 16:30    10.48 29 60.00 2590 421.0 False x
6/14/2010 16:30    3.50 30 146.00 350 138.9 False x
6/17/2010 11:09    12.56 27 461.00 3460 4,307.8 False x
6/17/2010 11:41    12.60  480.00 3480 4,512.7 False x
6/21/2010 16:30    13.83 28 207.00 4020 2,248.1 False x
6/28/2010 16:30    12.25 28 88.00 3320 791.7 False x
7/5/2010 16:30    5.31 29 61.00 835 138.4 False x
7/12/2010 16:30    7.66 28 137.00 1560 580.3 False x
7/19/2010 16:30    6.97 28 104.00 1330 373.7 False x
7/26/2010 16:30    13.46 29 184.00 3860 1,923.0 False x
8/2/2010 16:30    16.82 28 79.00 5460 1,166.8 False x
8/9/2010 16:30    3.09 30 52.00 232 32.9 False x
8/16/2010 16:30    2.53 30 42.00 114 13.1 False x
8/23/2010 16:30    2.97 29 43.00 203 24.0 False x
8/27/2010 12:20    2.68 29 39.00 141 15.2 False x
8/27/2010 13:01    2.68 29 34.00 141 13.2 False x
8/30/2010 16:30    2.40 28 41.00 93 10.5 False x
9/6/2010 16:30    2.75 26 48.00 155 20.2 False x
9/13/2010 16:30    2.68 24 76.00 141 29.0 False x
9/20/2010 16:30    2.08 21 31.00 51 4.4 False x
9/27/2010 16:30    1.95 17 28.00 38 2.9 False x
10/4/2010 16:30    1.87 16 20.00 31 1.7 False x
10/11/2010 16:30    1.91 17 18.00 35 1.8 False x
10/18/2010 16:30    2.00 17 21.00 43 2.5 False x
10/25/2010 16:30    1.75 13 13.00 22 0.8 False x
11/8/2010 16:30    1.87 10 13.00 31 1.1 False x
11/15/2010 16:30    1.92 10 12.00 36 1.2 False x
11/16/2010 16:30    6.58 30.00 1210 99.3 False x
11/22/2010 16:30    12.62 171.00 3480 1,615.5 False x
11/29/2010 16:30    6.87 60.00 1290 209.2 False x
12/6/2010 16:30    3.17 26.00 253 18.1 False x
12/13/2010 16:30    12.73 411.00 3430 3,808.6 False x
12/20/2010 16:30    3.57 22.00 369 22.7 False x
12/27/2010 16:30    7.30 63.00 1430 245.3 False x
1/3/2011 16:30    10.92 256.00 2700 1,871.9 False x
1/10/2011 16:30    22.38 235.00 8220 5,222.9 False x
2/28/2011 16:30    26.45 133.00 10700 3,857.7 False x
3/15/2011 16:30    31.03 10 42.00 15900 1,841.4 False x
3/21/2011 16:30    29.93 46.00 14100 1,776.9 False x
3/28/2011 16:30    15.10 57.00 4470 693.3 False x
4/5/2011 16:30    4.47 14 34.00 611 56.5 False x
4/12/2011 16:30    19.10 17 323.00 6420 5,603.2 False x
4/18/2011 16:30    19.42 16 95.00 6580 1,697.4 False x
4/25/2011 16:30    31.05 17 77.00 15900 3,342.8 False x
5/2/2011 16:30    35.35 17 49.00 43200 5,828.4 False x
5/9/2011 16:30    33.85 20 18.00 29200 1,440.4 False x
5/16/2011 16:30    30.17 18 20.00 14500 813.7 False x
5/23/2011 16:30    21.30 23 125.00 7570 2,573.8 False x
5/31/2011 16:30    14.64 27 135.00 4260 1,560.7 False x
6/6/2011 16:30    6.54 26 188.00 1190 606.7 False x
6/13/2011 16:30    21.00 24 263.00 7390 5,258.9 False x
6/27/2011 16:30    27.55 24 67.00 11600 2,102.8 False x
7/4/2011 16:30    29.60 27 27.00 13700 1,000.4 False x
7/11/2011 16:30    29.98 29 26.00 14200 1,017.5 False x
7/18/2011 16:30    25.80 29 24.00 10300 683.9 False x
7/25/2011 16:30    3.60 31 117.00 377 119.9 False x
8/1/2011 16:30    3.45 30 152.00 334 137.2 False x
8/8/2011 16:30    8.50 27 159.00 1830 787.3 False x
8/15/2011 16:30    2.65 28 47.00 135 17.1 False x
9/3/2011 16:30    2.07 23 36.00 50 4.9 False x
9/12/2011 16:30    2.10 23 36.00 53 5.2 False x
9/19/2011 16:30    3.48 21 119.00 344 111.2 False x
9/26/2011 16:30    19.12 16 431.00 6430 7,491.0 False x
10/3/2011 16:30    2.60 17 41.00 126 14.0 False x
10/10/2011 16:30    2.13 20 33.00 57 5.2 False x
10/17/2011 16:30    3.54 17 15.00 361 15.3 False x
10/24/2011 16:30    3.80 14 41.00 434 48.8 False x
10/31/2011 16:30    2.87 13 25.00 180 12.3 False x
11/7/2011 16:30    4.20 14 53.00 543 77.9 False x
11/14/2011 16:30    4.70 11 51.00 670 93.1 False x
11/21/2011 16:30    23.60 132.00 8930 3,185.5 False x
11/28/2011 16:30    29.87 46.00 14100 1,755.7 False x
12/5/2011 16:30    28.63 34.00 12600 1,169.0 False x
12/12/2011 16:30    16.55 18.00 5140 251.7 False x
12/19/2011 16:30    6.00 15.00 1030 44.2 False x
12/26/2011 16:30    8.00 115.00 1660 517.2 False x
1/2/2012 16:30    17.73 616.00 5720 9,516.0 False x
1/9/2012 16:30    9.82 222.00 2290 1,378.7 False x
1/16/2012 16:30    4.65 148.00 657 263.1 False x
1/19/2012 11:45    12.18  274.00 3210 2,377.3 False x
1/19/2012 12:57    12.27 279.00 3240 2,442.7 False x
1/23/2012 16:30    5.10 126.00 777 265.1 False x
2/6/2012 16:30    13.67 404.00 3840 4,189.0 False x
2/13/2012 16:30    3.53 10 187.00 358 180.8 False x
2/20/2012 16:30    8.74 177.00 1910 914.7 False x
2/27/2012 16:30    5.64 151.00 929 378.9 False x
3/5/2012 16:30    7.30 119.00 1430 461.9 False x
4/3/2012 08:15    4.89 22 72.00 720 141.9 False x
5/21/2012 16:30    2.71 27 174.00 147 69.1 False x
1/15/2013 01:38    25.83  178.00 10300 4,960.8 False x
1/15/2013 02:24    28.85  87.00 12800 3,014.7 False x
5/9/2013 12:28    26.78 18 20.00 10900 606.8 False x
5/9/2013 13:12    26.75 18 41.00 10900 1,220.9 False x
5/30/2013 10:51    4.17  107.00 536 154.9 False x
8/6/2013 10:50    3.86  79.00 452 97.6 False x
8/6/2013 11:22    3.86  76.00 452 93.7 False x
8/12/2013 16:30    3.95 26 60.00 479 77.7 False x
8/19/2013 16:30    2.42 29 32.00 96 8.4 False x
8/26/2013 16:30    2.14 28 34.00 58 5.4 False x
8/29/2013 12:08    2.35  29.00 85 6.7 False x
9/2/2013 16:30    1.98 23 38.00 41 4.3 False x
9/9/2013 16:30    2.04 22 37.00 47 4.8 False x
9/16/2013 16:30    2.10 22 35.00 53 5.1 False x
9/23/2013 16:30    2.05 24 32.00 48 4.2 False x
10/2/2013 11:13    2.10  24.00 53 3.4 False x
10/2/2013 11:42    2.10  23.00 53 3.3 False x
10/7/2013 16:30    8.50 20 157.00 1830 777.7 False x
10/14/2013 16:30    2.62 19 35.00 130 12.6 False x
10/21/2013 16:30    2.08 16 30.00 51 4.2 False x
10/28/2013 16:30    1.88 13 17.00 32 1.5 False x
11/4/2013 16:30    9.54 13 106.00 2190 629.7 False x
11/18/2013 14:17    6.81  87.00 1280 302.6 False x
11/18/2013 14:58    6.69  97.00 1240 325.2 False x
11/18/2013 16:30    6.50 13 107.00 1180 342.5 False x
11/20/2013 10:40    3.69  45.00 402 49.3 False x
11/25/2013 16:30    8.36 11 17.00 1780 85.5 False x
12/2/2013 16:30    2.80 21.00 165 9.7 False x
12/9/2013 16:30    7.65 28.00 1540 119.3 False x
12/23/2013 16:30    29.25 38.00 13300 1,393.9 False x
1/6/2014 16:30    19.85 167.00 6800 3,072.8 False x
2/24/2014 12:34    16.74  166.00 5230 2,357.0 False x
2/24/2014 13:08    16.74  145.00 5230 2,049.0 False x
2/24/2014 16:30    16.00 73.00 4890 964.0 False x
3/3/2014 16:30    4.10 10 39.00 519 55.8 False x
3/10/2014 16:30    2.80 10 42.00 165 18.8 False x
3/17/2014 16:30    2.77 10 71.00 159 30.5 False x
3/24/2014 16:30    2.20 11 36.00 65 6.4 False x
3/31/2014 16:30    1.72 12 65.00 20 3.5 False x
4/8/2014 16:30    29.45 12 211.00 13500 7,718.4 False x
4/14/2014 11:22    30.74 16 52.00 15400 2,196.0 False x
4/14/2014 11:56    30.74 10 29.00 15400 1,242.7 False x
4/15/2014 16:30    30.40 14 49.00 14900 1,985.6 False x
4/16/2014 09:46    29.62 14 35.00 13700 1,318.0 False x
4/21/2014 16:30    22.52 18 60.00 8300 1,353.2 False x
4/28/2014 16:30    17.20 19 1,565.00 5460 23,083.9 False x
5/5/2014 12:53    19.57 19 104.00 6660 1,874.6 False x
5/5/2014 13:26    19.54 19 109.00 6640 1,971.7 False x
5/5/2014 16:30    19.45 18 121.00 6600 2,169.5 False x
5/12/2014 16:30    11.87 23 319.00 3080 2,653.2 False x
5/19/2014 16:30    19.47 18 78.00 6610 1,406.0 False x
5/28/2014 16:30    6.00 25 75.00 1030 209.5 False x
6/3/2014 16:30    7.20 27 86.00 1400 325.2 False x
6/9/2014 16:30    8.62 25 106.00 1870 535.8 False x
6/16/2014 16:30    3.33 29 38.00 298 30.6 False x
6/30/2014 11:52    3.82  53.00 440 63.3 False x
6/30/2014 16:30    3.76 29 67.00 422 76.4 False x
7/7/2014 16:30    3.45 28 50.00 334 45.5 False x
7/14/2014 16:30    3.12 28 61.00 240 40.0 False x
7/21/2014 16:30    2.27 29 25.00 74 5.1 False x
8/4/2014 13:00    2.30  25.00 78 5.4 False x
8/4/2014 13:46    2.30 29 25.00 78 5.4 False x
8/18/2014 16:30    18.83 24 347.00 6280 5,897.5 False x
9/29/2014 01:56    2.82 24 34.00 169 15.6 False x
9/29/2014 02:20    2.81 24 34.00 167 15.6 False x
11/26/2014 10:32    13.38 187.00 3710 1,876.0 False x
11/26/2014 11:11    13.38 158.00 3710 1,583.6 False x
1/20/2015 13:35    7.64 14.00 1540 59.2 False x
1/27/2015 15:30    6.86 26.00 1290 92.2 False x
2/3/2015 14:15    12.05 144.00 3150 1,232.9 False x
2/10/2015 17:00    5.45 36.00 874 85.4 False x
2/17/2015 17:30    4.05 21.00 507 28.8 False x
2/24/2015 14:15    4.70 18.00 670 34.0 False x
3/5/2015 15:00    17.80 258.00 5760 4,021.7 False x
3/11/2015 14:30    22.90 520.00 8530 11,997.1 False x
3/15/2015 13:00    29.30 10 165.00 13300 5,952.4 False x
3/18/2015 11:13    31.23 11 80.00 16400 3,543.1 False x
3/18/2015 11:56    31.24 11 74.00 16400 3,298.8 False x
3/18/2015 14:00    31.25 10 68.00 16400 3,017.2 False x
3/27/2015 14:00    29.15 11 60.00 13200 2,167.9 False x
4/2/2015 13:30    24.70 14 60.00 9560 1,558.0 False x
4/9/2015 14:10    27.90 17 101.00 11900 3,265.6 False x
4/16/2015 09:36    26.65 17 32.00 10800 958.2 False x
4/16/2015 10:26    26.61 18 38.00 10800 1,134.5 False x
4/16/2015 15:00    26.50 19 60.00 10700 1,736.9 False x
4/21/2015 11:45    23.93 18 43.00 9120 1,073.7 False x
4/23/2015 12:00    14.25 17 44.00 4090 486.6 False x
5/1/2015 15:00    4.65 20 45.00 657 80.9 False x
5/8/2015 16:00    3.50 26 47.00 350 44.8 False x
5/15/2015 15:00    13.65 22 263.00 3830 2,721.4 False x
5/21/2015 09:15    10.05 19 170.00 2380 1,093.3 False x
5/23/2015 08:00    5.85 20 70.00 990 189.4 False x
5/30/2015 08:00    3.50 26 36.00 350 34.7 False x
6/4/2015 12:35    9.29  185.00 2100 1,051.5 False x
6/5/2015 15:30    9.60 24 189.00 2210 1,128.4 False x
6/11/2015 16:00    20.00 27 172.00 6880 3,199.5 False x
6/18/2015 15:30    24.00 26 87.00 9160 2,159.5 False x
6/26/2015 16:00    32.30 28 34.00 19600 1,826.9 False x
7/4/2015 16:00    31.25 26 11.00 16400 500.2 False x
7/10/2015 13:30    30.00 26 11.00 14200 443.3 False x
7/16/2015 15:00    25.00 28 19.00 9730 521.1 False x
7/30/2015 17:00    6.45 30 49.00 1170 156.7 False x
8/5/2015 14:30    3.50 28 124.00 350 117.4 False x
8/12/2015 11:17    7.06 26 102.00 1350 373.6 False x
8/12/2015 11:50    6.96 26 103.00 1320 369.2 False x
8/13/2015 15:00    4.90 28 87.00 723 170.2 False x
8/21/2015 17:00    2.55 26 39.00 117 12.4 False x
8/28/2015 15:00    2.60 26 41.00 126 14.2 False x
9/4/2015 15:00    3.00 26 50.00 210 28.5 False x
9/10/2015 14:30    7.15 24 173.00 1380 647.4 False x
9/19/2015 09:30    3.00 26 43.00 210 24.7 False x
9/22/2015 12:03    2.55 23 28.00 117 9.0 False x
9/24/2015 14:00    2.10 24 34.00 53 5.0 False x
10/2/2015 10:00    5.20 20 65.00 805 143.0 False x
10/11/2015 14:00    2.25 20 28.00 72 5.5 False x
10/17/2015 12:00    2.00 16 19.00 43 2.2 False x
10/23/2015 14:00    2.00 16 48.00 43 5.6 False x
11/1/2015 11:00    2.00 16 31.00 43 3.7 False x
11/5/2015 13:30    2.35 17 31.00 85 7.1 False x
11/12/2015 13:00    2.00 16 40.00 43 4.7 False x
11/20/2015 13:00    19.00 13 281.00 6370 4,833.5 False x
11/23/2015 14:11    17.50  111.00 5610 1,686.0 False x
11/23/2015 15:00    17.42  119.00 5570 1,792.2 False x
11/26/2015 11:30    13.45 14 142.00 3740 1,443.4 False x
12/4/2015 11:30    16.50 13 106.00 5120 1,474.7 False x
12/9/2015 14:00    9.70 11 46.00 2250 285.1 False x
12/18/2015 12:30    7.45 10 49.00 1480 198.4 False x
12/25/2015 11:00    17.00 11 419.00 5360 6,069.6 False x
12/30/2015 13:00    29.20 124.00 13200 4,451.7 False x
1/5/2016 11:54    33.56  32.00 26800 2,351.9 False x
1/5/2016 12:41    33.53  51.00 26600 3,720.7 False x
1/8/2016 13:30    32.10 44.00 18700 2,256.3 False x
1/15/2016 13:00    28.55 62.00 12500 2,122.0 False x
1/28/2016 14:30    5.30 22.00 832 50.4 False x
2/5/2016 11:30    5.40 14.00 860 32.7 False x
2/10/2016 14:00    7.20 9.00 1400 35.8 False x
2/18/2016 10:00    4.00 18.00 495 24.3 False x
2/26/2016 07:30    24.95 276.00 9700 7,251.4 False x
3/4/2016 13:00    26.85 110.00 11000 3,285.9 False x
3/11/2016 09:30    20.75 12 270.00 7260 5,293.8 False x
3/23/2016 14:00    10.20 14 95.00 2430 627.1 False x
3/30/2016 10:00    9.22 14 123.00 2080 691.4 False x
3/30/2016 10:43    9.11 14 137.00 2040 756.3 False x
3/31/2016 14:00    11.20 15 132.00 2810 1,006.6 False x
4/9/2016 14:00    10.00 16 101.00 2360 646.0 False x
4/18/2016 14:00    17.40 18 184.00 5560 2,773.3 False x
4/28/2016 14:00    20.75 22 144.00 7260 2,830.6 False x
5/4/2016 10:00    19.70 18 99.00 6720 1,808.6 False x
5/12/2016 06:30    20.60 18 281.00 7180 5,452.7 False x
5/19/2016 12:30    18.95 14 164.00 6340 2,822.7 False x
5/27/2016 17:00    6.10 24 65.00 1060 188.4 False x
6/4/2016 14:30    4.25 25 74.00 556 111.8 False x
6/9/2016 08:00    9.00 23 140.00 2000 761.1 False x
6/17/2016 08:30    4.00 26 80.00 495 107.1 False x
6/23/2016 08:40    3.95 29 43.00 479 56.5 False x
6/29/2016 10:00    3.95 28 62.00 479 81.2 False x
7/7/2016 11:00    14.00 28 212.00 3980 2,284.1 False x
7/15/2016 10:30    4.45 28 62.00 606 102.4 False x
7/20/2016 09:15    8.90 27 97.00 1960 516.7 False x
7/20/2016 10:05    8.81 28 93.00 1930 487.4 False x
7/21/2016 08:00    6.70 27 72.00 1240 243.5 False x
7/26/2016 09:00    9.30 27 144.00 2100 821.2 False x
7/29/2016 09:00    6.15 27 99.00 1080 289.3 False x
7/31/2016 09:30    9.35 27 168.00 2120 961.7 False x
10/5/2016 11:55    3.92 21 45.00 470 57.9 False x
10/5/2016 12:57    3.89 21 47.00 461 58.8 False x
11/14/2016 02:16    2.86 13 23.00 178 11.2 False x
11/14/2016 02:53    2.85  19.00 176 9.2 False x
12/6/2016 10:20    10.19 59.00 2430 392.6 False x
2/17/2017 09:58    3.77 21.00 425 24.9 False x
2/17/2017 10:49    3.78 19.00 428 22.6 False x

Data Set Parameters and Explanation

Help with downloading, csv files, printing, and more





Illinois State Water Survey

2204 Griffith Dr
Champaign, IL 61820-7463
217-244-5459
info@isws.illinois.edu

Terms of use. Email the Web Administrator with questions or comments.

© 2017 University of Illinois Board of Trustees. All rights reserved.
For permissions information, contact the Illinois State Water Survey.
Site Map